Observation data for Menard on 08/13/2019      Previous  Date  Next       Current Mesonet Observations  Soil Data  Daily Summary Page  Observations in Plain Language
KMD1 130500Z 18004KT 30/18 A2992 RMK A01 T02990184  RH  050%=      5-min Rain = 0
KMD1 130501Z 18004KT 30/18 A2992 RMK A01 T02980184  RH  050%=      5-min Rain = 0
KMD1 130502Z 18004KT 30/18 A2992 RMK A01 T02980184  RH  050%=      5-min Rain = 0
KMD1 130503Z 18004KT 30/18 A2992 RMK A01 T02980184  RH  050%=      5-min Rain = 0
KMD1 130504Z 18005KT 30/18 A2992 RMK A01 T02970184  RH  051%=      5-min Rain = 0
KMD1 130505Z 17004KT 30/18 A2992 RMK A01 T02970184  RH  051%=      5-min Rain = 0
KMD1 130506Z 17004KT 30/18 A2992 RMK A01 T02970184  RH  051%=      5-min Rain = 0
KMD1 130507Z 17004KT 30/18 A2992 RMK A01 T02960184  RH  051%=      5-min Rain = 0
KMD1 130508Z 17005KT 30/18 A2992 RMK A01 T02960184  RH  051%=      5-min Rain = 0
KMD1 130509Z 18005KT 30/18 A2992 RMK A01 T02970184  RH  051%=      5-min Rain = 0
KMD1 130510Z 17005KT 30/18 A2992 RMK A01 T02960184  RH  051%=      5-min Rain = 0
KMD1 130511Z 17005KT 30/18 A2992 RMK A01 T02960183  RH  051%=      5-min Rain = 0
KMD1 130512Z 17004KT 30/18 A2992 RMK A01 T02960184  RH  051%=      5-min Rain = 0
KMD1 130513Z 17005KT 30/18 A2992 RMK A01 T02960184  RH  051%=      5-min Rain = 0
KMD1 130514Z 17005KT 30/18 A2992 RMK A01 T02960184  RH  051%=      5-min Rain = 0
KMD1 130515Z 17006KT 30/18 A2992 RMK A01 T02960184  RH  051%=      5-min Rain = 0
KMD1 130516Z 17004KT 30/18 A2992 RMK A01 T02970184  RH  051%=      5-min Rain = 0
KMD1 130517Z 18004KT 30/18 A2992 RMK A01 T02970184  RH  051%=      5-min Rain = 0
KMD1 130518Z 18005KT 30/18 A2992 RMK A01 T02960184  RH  051%=      5-min Rain = 0
KMD1 130519Z 17007KT 30/18 A2992 RMK A01 T02960184  RH  051%=      5-min Rain = 0
KMD1 130520Z 17006KT 30/18 A2992 RMK A01 T02960184  RH  051%=      5-min Rain = 0
KMD1 130521Z 17006KT 30/18 A2992 RMK A01 T02960184  RH  051%=      5-min Rain = 0
KMD1 130522Z 18004KT 30/18 A2992 RMK A01 T02970184  RH  051%=      5-min Rain = 0
KMD1 130523Z 17006KT 30/18 A2992 RMK A01 T02970184  RH  051%=      5-min Rain = 0
KMD1 130524Z 17005KT 30/18 A2992 RMK A01 T02970184  RH  051%=      5-min Rain = 0
KMD1 130525Z 18004KT 30/18 A2992 RMK A01 T02960184  RH  051%=      5-min Rain = 0
KMD1 130526Z 18004KT 30/18 A2992 RMK A01 T02960184  RH  051%=      5-min Rain = 0
KMD1 130527Z 17005KT 30/18 A2992 RMK A01 T02950184  RH  051%=      5-min Rain = 0
KMD1 130528Z 17007KT 30/18 A2992 RMK A01 T02950184  RH  051%=      5-min Rain = 0
KMD1 130529Z 16007KT 30/18 A2992 RMK A01 T02950184  RH  051%=      5-min Rain = 0
KMD1 130530Z 18006KT 30/18 A2992 RMK A01 T02950184  RH  051%=      5-min Rain = 0
KMD1 130531Z 16005KT 30/18 A2992 RMK A01 T02950184  RH  051%=      5-min Rain = 0
KMD1 130532Z 18006KT 30/18 A2992 RMK A01 T02950184  RH  051%=      5-min Rain = 0
KMD1 130533Z 18006KT 30/18 A2992 RMK A01 T02950184  RH  051%=      5-min Rain = 0
KMD1 130534Z 17006KT 30/18 A2992 RMK A01 T02950184  RH  051%=      5-min Rain = 0
KMD1 130535Z 17006KT 30/18 A2992 RMK A01 T02950183  RH  051%=      5-min Rain = 0
KMD1 130536Z 17006KT 30/18 A2992 RMK A01 T02950184  RH  051%=      5-min Rain = 0
KMD1 130537Z 17005KT 30/18 A2992 RMK A01 T02950184  RH  051%=      5-min Rain = 0
KMD1 130538Z 17006KT 30/18 A2992 RMK A01 T02950184  RH  051%=      5-min Rain = 0
KMD1 130539Z 17005KT 30/18 A2992 RMK A01 T02950184  RH  051%=      5-min Rain = 0
KMD1 130540Z 17006KT 30/18 A2992 RMK A01 T02950184  RH  051%=      5-min Rain = 0
KMD1 130541Z 18005KT 29/18 A2992 RMK A01 T02940184  RH  051%=      5-min Rain = 0
KMD1 130542Z 16005KT 29/18 A2992 RMK A01 T02940184  RH  051%=      5-min Rain = 0
KMD1 130543Z 18006KT 29/18 A2992 RMK A01 T02940184  RH  051%=      5-min Rain = 0
KMD1 130544Z 18006KT 29/18 A2992 RMK A01 T02940184  RH  051%=      5-min Rain = 0
KMD1 130545Z 17006KT 29/18 A2992 RMK A01 T02940183  RH  051%=      5-min Rain = 0
KMD1 130546Z 17006KT 29/18 A2992 RMK A01 T02940183  RH  051%=      5-min Rain = 0
KMD1 130547Z 17006KT 29/18 A2992 RMK A01 T02940183  RH  051%=      5-min Rain = 0
KMD1 130548Z 18006KT 29/18 A2992 RMK A01 T02940184  RH  051%=      5-min Rain = 0
KMD1 130549Z 17005KT 29/18 A2992 RMK A01 T02940184  RH  051%=      5-min Rain = 0
KMD1 130550Z 17006KT 29/18 A2992 RMK A01 T02940184  RH  052%=      5-min Rain = 0
KMD1 130551Z 18006KT 29/18 A2992 RMK A01 T02940184  RH  052%=      5-min Rain = 0
KMD1 130552Z 17008KT 29/18 A2992 RMK A01 T02940184  RH  052%=      5-min Rain = 0
KMD1 130553Z 17008KT 29/18 A2992 RMK A01 T02940184  RH  051%=      5-min Rain = 0
KMD1 130554Z 18007KT 30/18 A2992 RMK A01 T02950183  RH  051%=      5-min Rain = 0
KMD1 130555Z 17007KT 30/18 A2992 RMK A01 T02960184  RH  051%=      5-min Rain = 0
KMD1 130556Z 18005KT 30/18 A2992 RMK A01 T02960184  RH  051%=      5-min Rain = 0
KMD1 130557Z 18007KT 30/18 A2992 RMK A01 T02950184  RH  051%=      5-min Rain = 0
KMD1 130558Z 17007KT 30/18 A2992 RMK A01 T02950184  RH  051%=      5-min Rain = 0
KMD1 130559Z 17008KT 30/18 A2992 RMK A01 T02950184  RH  051%=      5-min Rain = 0
KMD1 130600Z 17009KT 30/18 A2992 RMK A01 T02950184  RH  051%=      5-min Rain = 0
KMD1 130601Z 17009KT 30/18 A2992 RMK A01 T02950184  RH  051%=      5-min Rain = 0
KMD1 130602Z 17009KT 30/18 A2992 RMK A01 T02960184  RH  051%=      5-min Rain = 0
KMD1 130603Z 18009KT 30/18 A2992 RMK A01 T02960184  RH  051%=      5-min Rain = 0
KMD1 130604Z 17010KT 30/19 A2992 RMK A01 T02970185  RH  051%=      5-min Rain = 0
KMD1 130605Z 17010KT 30/19 A2992 RMK A01 T02970185  RH  051%=      5-min Rain = 0
KMD1 130606Z 17008KT 30/18 A2992 RMK A01 T02970184  RH  051%=      5-min Rain = 0
KMD1 130607Z 17010KT 30/18 A2992 RMK A01 T02970184  RH  051%=      5-min Rain = 0
KMD1 130608Z 17011KT 30/19 A2992 RMK A01 T02970185  RH  051%=      5-min Rain = 0
KMD1 130609Z 17010KT 30/19 A2992 RMK A01 T02970185  RH  051%=      5-min Rain = 0
KMD1 130610Z 17010KT 30/19 A2992 RMK A01 T02980186  RH  051%=      5-min Rain = 0
KMD1 130611Z 17011KT 30/19 A2992 RMK A01 T02980187  RH  051%=      5-min Rain = 0
KMD1 130612Z 17012KT 30/19 A2992 RMK A01 T02970187  RH  052%=      5-min Rain = 0
KMD1 130613Z 17013KT 30/19 A2992 RMK A01 T02970188  RH  052%=      5-min Rain = 0
KMD1 130614Z 17011KT 30/19 A2992 RMK A01 T02980188  RH  052%=      5-min Rain = 0
KMD1 130615Z 17009KT 30/19 A2992 RMK A01 T02980189  RH  052%=      5-min Rain = 0
KMD1 130616Z 17013KT 30/19 A2992 RMK A01 T02980190  RH  052%=      5-min Rain = 0
KMD1 130617Z 17010KT 30/19 A2992 RMK A01 T02970190  RH  053%=      5-min Rain = 0
KMD1 130618Z 18010KT 30/19 A2992 RMK A01 T02970191  RH  053%=      5-min Rain = 0
KMD1 130619Z 17009G14KT 30/19 A2992 RMK A01 T02970191  RH  053%=      5-min Rain = 0
KMD1 130620Z 17009KT 30/19 A2992 RMK A01 T02960191  RH  053%=      5-min Rain = 0
KMD1 130621Z 18009KT 30/19 A2992 RMK A01 T02960192  RH  053%=      5-min Rain = 0
KMD1 130622Z 18010KT 30/19 A2992 RMK A01 T02950191  RH  054%=      5-min Rain = 0
KMD1 130623Z 17009KT 30/19 A2992 RMK A01 T02950192  RH  054%=      5-min Rain = 0
KMD1 130624Z 17013KT 30/19 A2992 RMK A01 T02950192  RH  054%=      5-min Rain = 0
KMD1 130625Z 18008KT 30/19 A2992 RMK A01 T02950192  RH  054%=      5-min Rain = 0
KMD1 130626Z 18009KT 30/19 A2992 RMK A01 T02950193  RH  054%=      5-min Rain = 0
KMD1 130627Z 17009KT 29/19 A2992 RMK A01 T02940193  RH  054%=      5-min Rain = 0
KMD1 130628Z 17009KT 29/19 A2992 RMK A01 T02940193  RH  055%=      5-min Rain = 0
KMD1 130629Z 18010KT 29/19 A2992 RMK A01 T02940194  RH  055%=      5-min Rain = 0
KMD1 130630Z 17009KT 29/19 A2992 RMK A01 T02930194  RH  055%=      5-min Rain = 0
KMD1 130631Z 16010KT 29/20 A2992 RMK A01 T02930195  RH  055%=      5-min Rain = 0
KMD1 130632Z 17009KT 29/20 A2992 RMK A01 T02930195  RH  056%=      5-min Rain = 0
KMD1 130633Z 17007KT 29/20 A2992 RMK A01 T02930196  RH  056%=      5-min Rain = 0
KMD1 130634Z 18009KT 29/20 A2992 RMK A01 T02920196  RH  056%=      5-min Rain = 0
KMD1 130635Z 17008KT 29/20 A2992 RMK A01 T02920196  RH  056%=      5-min Rain = 0
KMD1 130636Z 17011KT 29/20 A2992 RMK A01 T02920197  RH  056%=      5-min Rain = 0
KMD1 130637Z 17008KT 29/20 A2992 RMK A01 T02920197  RH  057%=      5-min Rain = 0
KMD1 130638Z 18007KT 29/20 A2992 RMK A01 T02920197  RH  057%=      5-min Rain = 0
KMD1 130639Z 18008KT 29/20 A2992 RMK A01 T02910197  RH  057%=      5-min Rain = 0
KMD1 130640Z 17008KT 29/20 A2992 RMK A01 T02910198  RH  057%=      5-min Rain = 0
KMD1 130641Z 18008KT 29/20 A2992 RMK A01 T02910198  RH  057%=      5-min Rain = 0
KMD1 130642Z 17007KT 29/20 A2992 RMK A01 T02900198  RH  058%=      5-min Rain = 0
KMD1 130643Z 17008KT 29/20 A2992 RMK A01 T02900199  RH  058%=      5-min Rain = 0
KMD1 130644Z 18008KT 29/20 A2992 RMK A01 T02900199  RH  058%=      5-min Rain = 0
KMD1 130645Z 18010KT 29/20 A2992 RMK A01 T02900199  RH  058%=      5-min Rain = 0
KMD1 130646Z 17010KT 29/20 A2991 RMK A01 T02900200  RH  058%=      5-min Rain = 0
KMD1 130647Z 17009KT 29/20 A2992 RMK A01 T02900200  RH  058%=      5-min Rain = 0
KMD1 130648Z 17008KT 29/20 A2992 RMK A01 T02900200  RH  058%=      5-min Rain = 0
KMD1 130649Z 17008KT 29/20 A2992 RMK A01 T02890201  RH  059%=      5-min Rain = 0
KMD1 130650Z 17007KT 29/20 A2992 RMK A01 T02890201  RH  059%=      5-min Rain = 0
KMD1 130651Z 18008KT 29/20 A2992 RMK A01 T02890201  RH  059%=      5-min Rain = 0
KMD1 130652Z 18008KT 29/20 A2992 RMK A01 T02890201  RH  059%=      5-min Rain = 0
KMD1 130653Z 18010KT 29/20 A2992 RMK A01 T02880201  RH  059%=      5-min Rain = 0
KMD1 130654Z 18007G12KT 29/20 A2992 RMK A01 T02880202  RH  059%=      5-min Rain = 0
KMD1 130655Z 17006KT 29/20 A2992 RMK A01 T02880201  RH  059%=      5-min Rain = 0
KMD1 130656Z 18007KT 29/20 A2992 RMK A01 T02880202  RH  060%=      5-min Rain = 0
KMD1 130657Z 18007KT 29/20 A2992 RMK A01 T02870202  RH  060%=      5-min Rain = 0
KMD1 130658Z 19008KT 29/20 A2992 RMK A01 T02870202  RH  060%=      5-min Rain = 0
KMD1 130659Z 18008KT 29/20 A2992 RMK A01 T02870202  RH  060%=      5-min Rain = 0
KMD1 130700Z 18006KT 29/20 A2992 RMK A01 T02870202  RH  060%=      5-min Rain = 0
KMD1 130701Z 18007KT 29/20 A2992 RMK A01 T02870202  RH  060%=      5-min Rain = 0
KMD1 130702Z 18007KT 29/20 A2992 RMK A01 T02860202  RH  060%=      5-min Rain = 0
KMD1 130703Z 19006KT 29/20 A2992 RMK A01 T02850202  RH  061%=      5-min Rain = 0
KMD1 130704Z 18009KT 29/20 A2992 RMK A01 T02850202  RH  061%=      5-min Rain = 0
KMD1 130705Z 19006KT 29/20 A2992 RMK A01 T02860203  RH  061%=      5-min Rain = 0
KMD1 130706Z 19005KT 29/20 A2992 RMK A01 T02850203  RH  061%=      5-min Rain = 0
KMD1 130707Z 19008KT 29/20 A2992 RMK A01 T02850203  RH  061%=      5-min Rain = 0
KMD1 130708Z 19008KT 28/20 A2992 RMK A01 T02840203  RH  061%=      5-min Rain = 0
KMD1 130709Z 19007KT 28/20 A2992 RMK A01 T02840202  RH  061%=      5-min Rain = 0
KMD1 130710Z 19008KT 28/20 A2992 RMK A01 T02840203  RH  061%=      5-min Rain = 0
KMD1 130711Z 19008KT 28/20 A2992 RMK A01 T02840203  RH  062%=      5-min Rain = 0
KMD1 130712Z 20008KT 28/20 A2992 RMK A01 T02840203  RH  062%=      5-min Rain = 0
KMD1 130713Z 19009KT 28/20 A2992 RMK A01 T02830203  RH  062%=      5-min Rain = 0
KMD1 130714Z 20006KT 28/20 A2992 RMK A01 T02830203  RH  062%=      5-min Rain = 0
KMD1 130715Z 18008KT 28/20 A2992 RMK A01 T02830203  RH  062%=      5-min Rain = 0
KMD1 130716Z 19007KT 28/20 A2992 RMK A01 T02820204  RH  062%=      5-min Rain = 0
KMD1 130717Z 18007KT 28/20 A2992 RMK A01 T02820204  RH  063%=      5-min Rain = 0
KMD1 130718Z 19007KT 28/20 A2992 RMK A01 T02820204  RH  063%=      5-min Rain = 0
KMD1 130719Z 19007KT 28/21 A2992 RMK A01 T02820205  RH  063%=      5-min Rain = 0
KMD1 130720Z 18009KT 28/20 A2992 RMK A01 T02820204  RH  063%=      5-min Rain = 0
KMD1 130721Z 18010G15KT 28/21 A2992 RMK A01 T02820205  RH  063%=      5-min Rain = 0
KMD1 130722Z 18008KT 28/21 A2992 RMK A01 T02820205  RH  063%=      5-min Rain = 0
KMD1 130723Z 19008KT 28/21 A2992 RMK A01 T02820206  RH  063%=      5-min Rain = 0
KMD1 130724Z 18008KT 28/21 A2992 RMK A01 T02820206  RH  063%=      5-min Rain = 0
KMD1 130725Z 18008KT 28/21 A2992 RMK A01 T02820206  RH  063%=      5-min Rain = 0
KMD1 130726Z 18007KT 28/21 A2992 RMK A01 T02820206  RH  064%=      5-min Rain = 0
KMD1 130727Z 18009KT 28/21 A2992 RMK A01 T02820207  RH  064%=      5-min Rain = 0
KMD1 130728Z 18008KT 28/21 A2992 RMK A01 T02820207  RH  064%=      5-min Rain = 0
KMD1 130729Z 18007KT 28/21 A2992 RMK A01 T02810207  RH  064%=      5-min Rain = 0
KMD1 130730Z 17007KT 28/21 A2992 RMK A01 T02810208  RH  064%=      5-min Rain = 0
KMD1 130731Z 18008KT 28/21 A2992 RMK A01 T02810208  RH  065%=      5-min Rain = 0
KMD1 130732Z 17007KT 28/21 A2992 RMK A01 T02800208  RH  065%=      5-min Rain = 0
KMD1 130733Z 17007KT 28/21 A2992 RMK A01 T02810208  RH  065%=      5-min Rain = 0
KMD1 130734Z 17007KT 28/21 A2992 RMK A01 T02800208  RH  065%=      5-min Rain = 0
KMD1 130735Z 17007KT 28/21 A2992 RMK A01 T02800209  RH  065%=      5-min Rain = 0
KMD1 130736Z 17005KT 28/21 A2992 RMK A01 T02800209  RH  065%=      5-min Rain = 0
KMD1 130737Z 17005KT 28/21 A2992 RMK A01 T02800209  RH  065%=      5-min Rain = 0
KMD1 130738Z 17005KT 28/21 A2992 RMK A01 T02790209  RH  066%=      5-min Rain = 0
KMD1 130739Z 18005KT 28/21 A2992 RMK A01 T02790209  RH  066%=      5-min Rain = 0
KMD1 130740Z 17005KT 28/21 A2992 RMK A01 T02780209  RH  066%=      5-min Rain = 0
KMD1 130741Z 16006KT 28/21 A2992 RMK A01 T02780209  RH  066%=      5-min Rain = 0
KMD1 130742Z 17008KT 28/21 A2992 RMK A01 T02780210  RH  067%=      5-min Rain = 0
KMD1 130743Z 17008KT 28/21 A2992 RMK A01 T02780210  RH  066%=      5-min Rain = 0
KMD1 130744Z 17007KT 28/21 A2992 RMK A01 T02780210  RH  066%=      5-min Rain = 0
KMD1 130745Z 18008KT 28/21 A2992 RMK A01 T02780211  RH  067%=      5-min Rain = 0
KMD1 130746Z 16008KT 28/21 A2992 RMK A01 T02780211  RH  067%=      5-min Rain = 0
KMD1 130747Z 17008KT 28/21 A2992 RMK A01 T02790211  RH  067%=      5-min Rain = 0
KMD1 130748Z 17006KT 28/21 A2992 RMK A01 T02790211  RH  067%=      5-min Rain = 0
KMD1 130749Z 17005KT 28/21 A2992 RMK A01 T02790212  RH  067%=      5-min Rain = 0
KMD1 130750Z 17007KT 28/21 A2992 RMK A01 T02780212  RH  067%=      5-min Rain = 0
KMD1 130751Z 17008KT 28/21 A2992 RMK A01 T02780212  RH  067%=      5-min Rain = 0
KMD1 130752Z 17008KT 28/21 A2992 RMK A01 T02780212  RH  067%=      5-min Rain = 0
KMD1 130753Z 17007KT 28/21 A2992 RMK A01 T02780213  RH  067%=      5-min Rain = 0
KMD1 130754Z 18006KT 28/21 A2992 RMK A01 T02780212  RH  067%=      5-min Rain = 0
KMD1 130755Z 17008KT 28/21 A2992 RMK A01 T02780213  RH  068%=      5-min Rain = 0
KMD1 130756Z 18009KT 28/21 A2992 RMK A01 T02780213  RH  068%=      5-min Rain = 0
KMD1 130757Z 17008KT 28/21 A2992 RMK A01 T02780213  RH  068%=      5-min Rain = 0
KMD1 130758Z 17007KT 28/21 A2992 RMK A01 T02780213  RH  068%=      5-min Rain = 0
KMD1 130759Z 18008KT 28/21 A2992 RMK A01 T02780213  RH  068%=      5-min Rain = 0
KMD1 130800Z 18007KT 28/21 A2992 RMK A01 T02790214  RH  068%=      5-min Rain = 0
KMD1 130801Z 18009KT 28/21 A2992 RMK A01 T02790214  RH  068%=      5-min Rain = 0
KMD1 130802Z 17006KT 28/21 A2992 RMK A01 T02790214  RH  068%=      5-min Rain = 0
KMD1 130803Z 17006KT 28/21 A2992 RMK A01 T02780214  RH  068%=      5-min Rain = 0
KMD1 130804Z 17010KT 28/22 A2992 RMK A01 T02780215  RH  068%=      5-min Rain = 0
KMD1 130805Z 17008KT 28/22 A2992 RMK A01 T02780215  RH  069%=      5-min Rain = 0
KMD1 130806Z 17008KT 28/22 A2992 RMK A01 T02780215  RH  069%=      5-min Rain = 0
KMD1 130807Z 18006KT 28/22 A2992 RMK A01 T02780216  RH  069%=      5-min Rain = 0
KMD1 130808Z 18007G12KT 28/22 A2992 RMK A01 T02780216  RH  069%=      5-min Rain = 0
KMD1 130809Z 19010KT 28/22 A2992 RMK A01 T02770216  RH  069%=      5-min Rain = 0
KMD1 130810Z 18009KT 28/22 A2992 RMK A01 T02770216  RH  069%=      5-min Rain = 0
KMD1 130811Z 18009KT 28/22 A2992 RMK A01 T02770216  RH  069%=      5-min Rain = 0
KMD1 130812Z 18009KT 28/22 A2992 RMK A01 T02770217  RH  069%=      5-min Rain = 0
KMD1 130813Z 17010KT 28/22 A2991 RMK A01 T02780217  RH  069%=      5-min Rain = 0
KMD1 130814Z 17008KT 28/22 A2991 RMK A01 T02780217  RH  070%=      5-min Rain = 0
KMD1 130815Z 17005KT 28/22 A2992 RMK A01 T02780217  RH  070%=      5-min Rain = 0
KMD1 130816Z 17006KT 28/22 A2992 RMK A01 T02770217  RH  070%=      5-min Rain = 0
KMD1 130817Z 17009KT 28/22 A2992 RMK A01 T02770217  RH  070%=      5-min Rain = 0
KMD1 130818Z 18009KT 28/22 A2992 RMK A01 T02770217  RH  070%=      5-min Rain = 0
KMD1 130819Z 18006KT 28/22 A2992 RMK A01 T02770217  RH  070%=      5-min Rain = 0
KMD1 130820Z 16005KT 28/22 A2992 RMK A01 T02770217  RH  070%=      5-min Rain = 0
KMD1 130821Z 17005KT 28/22 A2992 RMK A01 T02770217  RH  070%=      5-min Rain = 0
KMD1 130822Z 17007KT 28/22 A2992 RMK A01 T02760217  RH  070%=      5-min Rain = 0
KMD1 130823Z 18007G12KT 28/22 A2992 RMK A01 T02760217  RH  070%=      5-min Rain = 0
KMD1 130824Z 17008KT 28/22 A2992 RMK A01 T02760217  RH  070%=      5-min Rain = 0
KMD1 130825Z 17007KT 28/22 A2992 RMK A01 T02760217  RH  070%=      5-min Rain = 0
KMD1 130826Z 17006KT 28/22 A2992 RMK A01 T02760218  RH  071%=      5-min Rain = 0
KMD1 130827Z 17008KT 28/22 A2992 RMK A01 T02760218  RH  071%=      5-min Rain = 0
KMD1 130828Z 17008KT 28/22 A2992 RMK A01 T02760218  RH  071%=      5-min Rain = 0
KMD1 130829Z 17007KT 28/22 A2992 RMK A01 T02760218  RH  071%=      5-min Rain = 0
KMD1 130830Z 17006KT 28/22 A2992 RMK A01 T02750217  RH  071%=      5-min Rain = 0
KMD1 130831Z 18008KT 28/22 A2992 RMK A01 T02750217  RH  071%=      5-min Rain = 0
KMD1 130832Z 18006KT 28/22 A2992 RMK A01 T02760218  RH  071%=      5-min Rain = 0
KMD1 130833Z 18008KT 28/22 A2992 RMK A01 T02760218  RH  071%=      5-min Rain = 0
KMD1 130834Z 17007KT 28/22 A2992 RMK A01 T02750218  RH  071%=      5-min Rain = 0
KMD1 130835Z 17006KT 28/22 A2992 RMK A01 T02750218  RH  071%=      5-min Rain = 0
KMD1 130836Z 16007KT 28/22 A2992 RMK A01 T02750218  RH  071%=      5-min Rain = 0
KMD1 130837Z 18005KT 27/22 A2992 RMK A01 T02740217  RH  071%=      5-min Rain = 0
KMD1 130838Z 17005KT 27/22 A2992 RMK A01 T02740218  RH  071%=      5-min Rain = 0
KMD1 130839Z 17006KT 27/22 A2992 RMK A01 T02740217  RH  071%=      5-min Rain = 0
KMD1 130840Z 17005KT 27/22 A2992 RMK A01 T02740217  RH  071%=      5-min Rain = 0
KMD1 130841Z 16006KT 27/22 A2992 RMK A01 T02740218  RH  072%=      5-min Rain = 0
KMD1 130842Z 15004KT 27/22 A2992 RMK A01 T02740218  RH  071%=      5-min Rain = 0
KMD1 130843Z 18004KT 27/22 A2992 RMK A01 T02730218  RH  072%=      5-min Rain = 0
KMD1 130844Z 18006KT 27/22 A2992 RMK A01 T02730218  RH  072%=      5-min Rain = 0
KMD1 130845Z 16004KT 27/22 A2992 RMK A01 T02730218  RH  072%=      5-min Rain = 0
KMD1 130846Z 16004KT 27/22 A2992 RMK A01 T02730218  RH  072%=      5-min Rain = 0
KMD1 130847Z 18003KT 27/22 A2992 RMK A01 T02720218  RH  072%=      5-min Rain = 0
KMD1 130848Z 16006KT 27/22 A2992 RMK A01 T02720218  RH  072%=      5-min Rain = 0
KMD1 130849Z 16004KT 27/22 A2992 RMK A01 T02720218  RH  072%=      5-min Rain = 0
KMD1 130850Z 19003KT 27/22 A2992 RMK A01 T02710218  RH  073%=      5-min Rain = 0
KMD1 130851Z 18004KT 27/22 A2992 RMK A01 T02720219  RH  073%=      5-min Rain = 0
KMD1 130852Z 19003KT 27/22 A2992 RMK A01 T02710218  RH  073%=      5-min Rain = 0
KMD1 130853Z 17004KT 27/22 A2992 RMK A01 T02710219  RH  073%=      5-min Rain = 0
KMD1 130854Z 17004KT 27/22 A2992 RMK A01 T02710218  RH  073%=      5-min Rain = 0
KMD1 130855Z 16004KT 27/22 A2992 RMK A01 T02710218  RH  073%=      5-min Rain = 0
KMD1 130856Z 17003KT 27/22 A2992 RMK A01 T02700218  RH  073%=      5-min Rain = 0
KMD1 130857Z 16005KT 27/22 A2992 RMK A01 T02700219  RH  074%=      5-min Rain = 0
KMD1 130858Z 18004KT 27/22 A2992 RMK A01 T02700219  RH  074%=      5-min Rain = 0
KMD1 130859Z 18003KT 27/22 A2992 RMK A01 T02700219  RH  073%=      5-min Rain = 0
KMD1 130900Z 20005KT 27/22 A2992 RMK A01 T02710219  RH  073%=      5-min Rain = 0
KMD1 130901Z 18004KT 27/22 A2992 RMK A01 T02710219  RH  073%=      5-min Rain = 0
KMD1 130902Z 18003KT 27/22 A2992 RMK A01 T02710219  RH  073%=      5-min Rain = 0
KMD1 130903Z 17004KT 27/22 A2992 RMK A01 T02710219  RH  073%=      5-min Rain = 0
KMD1 130904Z 17003KT 27/22 A2992 RMK A01 T02710219  RH  073%=      5-min Rain = 0
KMD1 130905Z 19002KT 27/22 A2992 RMK A01 T02710219  RH  073%=      5-min Rain = 0
KMD1 130906Z 18001KT 27/22 A2992 RMK A01 T02700219  RH  073%=      5-min Rain = 0
KMD1 130907Z 18003KT 27/22 A2992 RMK A01 T02700219  RH  074%=      5-min Rain = 0
KMD1 130908Z 17004KT 27/22 A2992 RMK A01 T02700219  RH  074%=      5-min Rain = 0
KMD1 130909Z 18003KT 27/22 A2992 RMK A01 T02700219  RH  074%=      5-min Rain = 0
KMD1 130910Z 16002KT 27/22 A2992 RMK A01 T02700219  RH  074%=      5-min Rain = 0
KMD1 130911Z 19002KT 27/22 A2992 RMK A01 T02690219  RH  074%=      5-min Rain = 0
KMD1 130912Z 17004KT 27/22 A2992 RMK A01 T02680219  RH  074%=      5-min Rain = 0
KMD1 130913Z 16004KT 27/22 A2992 RMK A01 T02690219  RH  074%=      5-min Rain = 0
KMD1 130914Z 17002KT 27/22 A2992 RMK A01 T02690219  RH  074%=      5-min Rain = 0
KMD1 130915Z 19002KT 27/22 A2992 RMK A01 T02680219  RH  074%=      5-min Rain = 0
KMD1 130916Z 17002KT 27/22 A2992 RMK A01 T02680219  RH  075%=      5-min Rain = 0
KMD1 130917Z 18002KT 27/22 A2992 RMK A01 T02680219  RH  074%=      5-min Rain = 0
KMD1 130918Z 22001KT 27/22 A2992 RMK A01 T02690219  RH  074%=      5-min Rain = 0
KMD1 130919Z 18002KT 27/22 A2992 RMK A01 T02680219  RH  074%=      5-min Rain = 0
KMD1 130920Z 16000KT 27/22 A2992 RMK A01 T02680219  RH  075%=      5-min Rain = 0
KMD1 130921Z 20002KT 27/22 A2992 RMK A01 T02680220  RH  075%=      5-min Rain = 0
KMD1 130922Z 20002KT 27/22 A2992 RMK A01 T02680220  RH  075%=      5-min Rain = 0
KMD1 130923Z 21001KT 27/22 A2992 RMK A01 T02670219  RH  075%=      5-min Rain = 0
KMD1 130924Z 18002KT 27/22 A2992 RMK A01 T02670219  RH  075%=      5-min Rain = 0
KMD1 130925Z 19003KT 27/22 A2992 RMK A01 T02670220  RH  075%=      5-min Rain = 0
KMD1 130926Z 16002KT 27/22 A2992 RMK A01 T02670219  RH  075%=      5-min Rain = 0
KMD1 130927Z 16002KT 27/22 A2992 RMK A01 T02670219  RH  075%=      5-min Rain = 0
KMD1 130928Z 18002KT 27/22 A2992 RMK A01 T02660219  RH  075%=      5-min Rain = 0
KMD1 130929Z 16002KT 27/22 A2992 RMK A01 T02660219  RH  075%=      5-min Rain = 0
KMD1 130930Z 17002KT 27/22 A2992 RMK A01 T02660219  RH  075%=      5-min Rain = 0
KMD1 130931Z 20002KT 27/22 A2992 RMK A01 T02660219  RH  075%=      5-min Rain = 0
KMD1 130932Z 20001KT 27/22 A2992 RMK A01 T02650218  RH  075%=      5-min Rain = 0
KMD1 130933Z 14000KT 27/22 A2992 RMK A01 T02650218  RH  076%=      5-min Rain = 0
KMD1 130934Z 17001KT 26/22 A2992 RMK A01 T02640218  RH  076%=      5-min Rain = 0
KMD1 130935Z 17001KT 26/22 A2992 RMK A01 T02630219  RH  076%=      5-min Rain = 0
KMD1 130936Z 20001KT 26/22 A2992 RMK A01 T02630219  RH  076%=      5-min Rain = 0
KMD1 130937Z 00000KT 26/22 A2992 RMK A01 T02640219  RH  076%=      5-min Rain = 0
KMD1 130938Z 00000KT 26/22 A2992 RMK A01 T02630218  RH  076%=      5-min Rain = 0
KMD1 130939Z 00000KT 26/22 A2992 RMK A01 T02630219  RH  077%=      5-min Rain = 0
KMD1 130940Z 00000KT 26/22 A2992 RMK A01 T02630219  RH  077%=      5-min Rain = 0
KMD1 130941Z 13000KT 26/22 A2993 RMK A01 T02630218  RH  076%=      5-min Rain = 0
KMD1 130942Z 14001KT 26/22 A2993 RMK A01 T02630219  RH  077%=      5-min Rain = 0
KMD1 130943Z 00000KT 26/22 A2993 RMK A01 T02620218  RH  077%=      5-min Rain = 0
KMD1 130944Z 00000KT 26/22 A2993 RMK A01 T02630218  RH  077%=      5-min Rain = 0
KMD1 130945Z 00000KT 26/22 A2992 RMK A01 T02620218  RH  077%=      5-min Rain = 0
KMD1 130946Z 00000KT 26/22 A2992 RMK A01 T02620218  RH  077%=      5-min Rain = 0
KMD1 130947Z 00000KT 26/22 A2992 RMK A01 T02610218  RH  077%=      5-min Rain = 0
KMD1 130948Z 14000KT 26/22 A2992 RMK A01 T02610218  RH  077%=      5-min Rain = 0
KMD1 130949Z 25000KT 26/22 A2992 RMK A01 T02600218  RH  077%=      5-min Rain = 0
KMD1 130950Z 21002KT 26/22 A2992 RMK A01 T02600219  RH  078%=      5-min Rain = 0
KMD1 130951Z 18002KT 26/22 A2993 RMK A01 T02610218  RH  077%=      5-min Rain = 0
KMD1 130952Z 18002KT 26/22 A2992 RMK A01 T02620218  RH  077%=      5-min Rain = 0
KMD1 130953Z 17002KT 26/22 A2993 RMK A01 T02620217  RH  076%=      5-min Rain = 0
KMD1 130954Z 17002KT 26/22 A2993 RMK A01 T02610217  RH  077%=      5-min Rain = 0
KMD1 130955Z 16001KT 26/22 A2993 RMK A01 T02600218  RH  077%=      5-min Rain = 0
KMD1 130956Z 16001KT 26/22 A2993 RMK A01 T02600219  RH  078%=      5-min Rain = 0
KMD1 130957Z 17002KT 26/22 A2993 RMK A01 T02600217  RH  077%=      5-min Rain = 0
KMD1 130958Z 18001KT 26/22 A2993 RMK A01 T02600218  RH  078%=      5-min Rain = 0
KMD1 130959Z 16001KT 26/22 A2993 RMK A01 T02590218  RH  078%=      5-min Rain = 0
KMD1 131000Z 17002KT 26/22 A2993 RMK A01 T02590218  RH  078%=      5-min Rain = 0
KMD1 131001Z 17002KT 26/22 A2993 RMK A01 T02590218  RH  078%=      5-min Rain = 0
KMD1 131002Z 16004KT 26/22 A2993 RMK A01 T02590218  RH  078%=      5-min Rain = 0
KMD1 131003Z 16003KT 26/22 A2993 RMK A01 T02600218  RH  078%=      5-min Rain = 0
KMD1 131004Z 19004KT 26/22 A2993 RMK A01 T02600217  RH  077%=      5-min Rain = 0
KMD1 131005Z 16003KT 26/22 A2993 RMK A01 T02610218  RH  077%=      5-min Rain = 0
KMD1 131006Z 18002KT 26/22 A2993 RMK A01 T02620218  RH  077%=      5-min Rain = 0
KMD1 131007Z 17002KT 26/22 A2993 RMK A01 T02620218  RH  077%=      5-min Rain = 0
KMD1 131008Z 18002KT 26/22 A2993 RMK A01 T02620218  RH  077%=      5-min Rain = 0
KMD1 131009Z 17003KT 26/22 A2993 RMK A01 T02610218  RH  077%=      5-min Rain = 0
KMD1 131010Z 17002KT 26/22 A2993 RMK A01 T02610218  RH  077%=      5-min Rain = 0
KMD1 131011Z 20002KT 26/22 A2993 RMK A01 T02600218  RH  078%=      5-min Rain = 0
KMD1 131012Z 18003KT 26/22 A2993 RMK A01 T02600218  RH  078%=      5-min Rain = 0
KMD1 131013Z 19002KT 26/22 A2993 RMK A01 T02600218  RH  077%=      5-min Rain = 0
KMD1 131014Z 19003KT 26/22 A2993 RMK A01 T02600218  RH  077%=      5-min Rain = 0
KMD1 131015Z 19003KT 26/22 A2993 RMK A01 T02600218  RH  078%=      5-min Rain = 0
KMD1 131016Z 18002KT 26/22 A2993 RMK A01 T02600218  RH  077%=      5-min Rain = 0
KMD1 131017Z 18004KT 26/22 A2993 RMK A01 T02600218  RH  078%=      5-min Rain = 0
KMD1 131018Z 19003KT 26/22 A2993 RMK A01 T02600218  RH  077%=      5-min Rain = 0
KMD1 131019Z 18005KT 26/22 A2993 RMK A01 T02590218  RH  078%=      5-min Rain = 0
KMD1 131020Z 19006KT 26/22 A2993 RMK A01 T02590218  RH  078%=      5-min Rain = 0
KMD1 131021Z 18004KT 26/22 A2993 RMK A01 T02600218  RH  078%=      5-min Rain = 0
KMD1 131022Z 17003KT 26/22 A2993 RMK A01 T02600218  RH  077%=      5-min Rain = 0
KMD1 131023Z 17003KT 26/22 A2993 RMK A01 T02600218  RH  077%=      5-min Rain = 0
KMD1 131024Z 17003KT 26/22 A2993 RMK A01 T02600217  RH  077%=      5-min Rain = 0
KMD1 131025Z 17002KT 26/22 A2993 RMK A01 T02580217  RH  078%=      5-min Rain = 0
KMD1 131026Z 17003KT 26/22 A2993 RMK A01 T02570218  RH  079%=      5-min Rain = 0
KMD1 131027Z 16003KT 26/22 A2993 RMK A01 T02570218  RH  079%=      5-min Rain = 0
KMD1 131028Z 17003KT 26/22 A2993 RMK A01 T02570217  RH  079%=      5-min Rain = 0
KMD1 131029Z 17003KT 26/22 A2993 RMK A01 T02560218  RH  079%=      5-min Rain = 0
KMD1 131030Z 16003KT 26/22 A2993 RMK A01 T02560217  RH  079%=      5-min Rain = 0
KMD1 131031Z 16004KT 26/22 A2993 RMK A01 T02560217  RH  079%=      5-min Rain = 0
KMD1 131032Z 16004KT 26/22 A2993 RMK A01 T02560218  RH  079%=      5-min Rain = 0
KMD1 131033Z 16004KT 26/22 A2993 RMK A01 T02560217  RH  079%=      5-min Rain = 0
KMD1 131034Z 16004KT 26/22 A2993 RMK A01 T02560217  RH  079%=      5-min Rain = 0
KMD1 131035Z 18003KT 26/22 A2993 RMK A01 T02560217  RH  079%=      5-min Rain = 0
KMD1 131036Z 17004KT 26/22 A2993 RMK A01 T02560217  RH  079%=      5-min Rain = 0
KMD1 131037Z 17003KT 26/22 A2993 RMK A01 T02560217  RH  079%=      5-min Rain = 0
KMD1 131038Z 17002KT 26/22 A2993 RMK A01 T02560217  RH  079%=      5-min Rain = 0
KMD1 131039Z 16002KT 26/22 A2993 RMK A01 T02560217  RH  079%=      5-min Rain = 0
KMD1 131040Z 16003KT 26/22 A2993 RMK A01 T02560217  RH  079%=      5-min Rain = 0
KMD1 131041Z 18003KT 26/22 A2993 RMK A01 T02550216  RH  079%=      5-min Rain = 0
KMD1 131042Z 18003KT 25/22 A2993 RMK A01 T02540217  RH  080%=      5-min Rain = 0
KMD1 131043Z 17002KT 25/22 A2993 RMK A01 T02540217  RH  080%=      5-min Rain = 0
KMD1 131044Z 20001KT 26/22 A2993 RMK A01 T02550217  RH  080%=      5-min Rain = 0
KMD1 131045Z 20002KT 26/22 A2993 RMK A01 T02550218  RH  080%=      5-min Rain = 0
KMD1 131046Z 20003KT 26/22 A2993 RMK A01 T02550217  RH  080%=      5-min Rain = 0
KMD1 131047Z 20002KT 26/22 A2993 RMK A01 T02560217  RH  079%=      5-min Rain = 0
KMD1 131048Z 22002KT 26/22 A2993 RMK A01 T02550217  RH  079%=      5-min Rain = 0
KMD1 131049Z 20003KT 26/22 A2993 RMK A01 T02550217  RH  080%=      5-min Rain = 0
KMD1 131050Z 21002KT 26/22 A2993 RMK A01 T02550218  RH  080%=      5-min Rain = 0
KMD1 131051Z 20002KT 26/22 A2993 RMK A01 T02550218  RH  080%=      5-min Rain = 0
KMD1 131052Z 22002KT 26/22 A2994 RMK A01 T02550218  RH  080%=      5-min Rain = 0
KMD1 131053Z 22002KT 26/22 A2994 RMK A01 T02550218  RH  080%=      5-min Rain = 0
KMD1 131054Z 21002KT 26/22 A2994 RMK A01 T02550218  RH  080%=      5-min Rain = 0
KMD1 131055Z 21002KT 25/22 A2994 RMK A01 T02540218  RH  080%=      5-min Rain = 0
KMD1 131056Z 21002KT 25/22 A2994 RMK A01 T02540218  RH  080%=      5-min Rain = 0
KMD1 131057Z 23002KT 25/22 A2994 RMK A01 T02540217  RH  080%=      5-min Rain = 0
KMD1 131058Z 21002KT 25/22 A2994 RMK A01 T02540217  RH  080%=      5-min Rain = 0
KMD1 131059Z 21003KT 25/22 A2994 RMK A01 T02530218  RH  081%=      5-min Rain = 0
KMD1 131100Z 22003KT 25/22 A2994 RMK A01 T02540217  RH  080%=      5-min Rain = 0
KMD1 131101Z 21002KT 25/22 A2994 RMK A01 T02540218  RH  080%=      5-min Rain = 0
KMD1 131102Z 20002KT 25/22 A2994 RMK A01 T02540217  RH  080%=      5-min Rain = 0
KMD1 131103Z 20003KT 26/22 A2994 RMK A01 T02550218  RH  080%=      5-min Rain = 0
KMD1 131104Z 20003KT 25/22 A2994 RMK A01 T02540218  RH  080%=      5-min Rain = 0
KMD1 131105Z 21003KT 26/22 A2994 RMK A01 T02550218  RH  080%=      5-min Rain = 0
KMD1 131106Z 21003KT 25/22 A2994 RMK A01 T02540218  RH  080%=      5-min Rain = 0
KMD1 131107Z 21004KT 25/22 A2994 RMK A01 T02540218  RH  080%=      5-min Rain = 0
KMD1 131108Z 20003KT 25/22 A2994 RMK A01 T02540218  RH  081%=      5-min Rain = 0
KMD1 131109Z 20002KT 25/22 A2994 RMK A01 T02540218  RH  080%=      5-min Rain = 0
KMD1 131110Z 21003KT 25/22 A2994 RMK A01 T02540218  RH  081%=      5-min Rain = 0
KMD1 131111Z 20003KT 25/22 A2994 RMK A01 T02540218  RH  080%=      5-min Rain = 0
KMD1 131112Z 20004KT 25/22 A2994 RMK A01 T02540218  RH  080%=      5-min Rain = 0
KMD1 131113Z 20003KT 25/22 A2994 RMK A01 T02540218  RH  081%=      5-min Rain = 0
KMD1 131114Z 20003KT 25/22 A2994 RMK A01 T02540218  RH  081%=      5-min Rain = 0
KMD1 131115Z 19003KT 25/22 A2994 RMK A01 T02540218  RH  081%=      5-min Rain = 0
KMD1 131116Z 20003KT 25/22 A2994 RMK A01 T02540218  RH  081%=      5-min Rain = 0
KMD1 131117Z 20003KT 25/22 A2994 RMK A01 T02530218  RH  081%=      5-min Rain = 0
KMD1 131118Z 19003KT 25/22 A2994 RMK A01 T02530218  RH  081%=      5-min Rain = 0
KMD1 131119Z 20003KT 25/22 A2994 RMK A01 T02520219  RH  082%=      5-min Rain = 0
KMD1 131120Z 20003KT 25/22 A2994 RMK A01 T02520219  RH  082%=      5-min Rain = 0
KMD1 131121Z 20002KT 25/22 A2994 RMK A01 T02530219  RH  082%=      5-min Rain = 0
KMD1 131122Z 19002KT 25/22 A2994 RMK A01 T02520219  RH  082%=      5-min Rain = 0
KMD1 131123Z 20002KT 25/22 A2994 RMK A01 T02520219  RH  082%=      5-min Rain = 0
KMD1 131124Z 20002KT 25/22 A2994 RMK A01 T02520218  RH  082%=      5-min Rain = 0
KMD1 131125Z 20002KT 25/22 A2994 RMK A01 T02520219  RH  082%=      5-min Rain = 0
KMD1 131126Z 20002KT 25/22 A2994 RMK A01 T02520219  RH  082%=      5-min Rain = 0
KMD1 131127Z 20002KT 25/22 A2994 RMK A01 T02520219  RH  082%=      5-min Rain = 0
KMD1 131128Z 20002KT 25/22 A2994 RMK A01 T02510218  RH  082%=      5-min Rain = 0
KMD1 131129Z 20003KT 25/22 A2994 RMK A01 T02510218  RH  082%=      5-min Rain = 0
KMD1 131130Z 19002KT 25/22 A2994 RMK A01 T02510217  RH  082%=      5-min Rain = 0
KMD1 131131Z 19002KT 25/22 A2994 RMK A01 T02500217  RH  082%=      5-min Rain = 0
KMD1 131132Z 19002KT 25/22 A2994 RMK A01 T02500218  RH  083%=      5-min Rain = 0
KMD1 131133Z 19002KT 25/22 A2994 RMK A01 T02500218  RH  083%=      5-min Rain = 0
KMD1 131134Z 19002KT 25/22 A2994 RMK A01 T02500218  RH  083%=      5-min Rain = 0
KMD1 131135Z 19003KT 25/22 A2994 RMK A01 T02500218  RH  083%=      5-min Rain = 0
KMD1 131136Z 19003KT 25/22 A2994 RMK A01 T02500218  RH  083%=      5-min Rain = 0
KMD1 131137Z 18003KT 25/22 A2994 RMK A01 T02500218  RH  082%=      5-min Rain = 0
KMD1 131138Z 18002KT 25/22 A2994 RMK A01 T02500218  RH  082%=      5-min Rain = 0
KMD1 131139Z 18003KT 25/22 A2994 RMK A01 T02490217  RH  082%=      5-min Rain = 0
KMD1 131140Z 18003KT 25/22 A2994 RMK A01 T02480218  RH  083%=      5-min Rain = 0
KMD1 131141Z 17003KT 25/22 A2995 RMK A01 T02480218  RH  083%=      5-min Rain = 0
KMD1 131142Z 18003KT 25/22 A2995 RMK A01 T02480218  RH  083%=      5-min Rain = 0
KMD1 131143Z 18003KT 25/22 A2995 RMK A01 T02480218  RH  083%=      5-min Rain = 0
KMD1 131144Z 17002KT 25/22 A2995 RMK A01 T02480217  RH  083%=      5-min Rain = 0
KMD1 131145Z 17002KT 25/22 A2995 RMK A01 T02480217  RH  083%=      5-min Rain = 0
KMD1 131146Z 17002KT 25/22 A2995 RMK A01 T02480217  RH  083%=      5-min Rain = 0
KMD1 131147Z 17003KT 25/22 A2995 RMK A01 T02480219  RH  084%=      5-min Rain = 0
KMD1 131148Z 17003KT 25/22 A2995 RMK A01 T02480218  RH  084%=      5-min Rain = 0
KMD1 131149Z 17003KT 25/22 A2995 RMK A01 T02480218  RH  083%=      5-min Rain = 0
KMD1 131150Z 17003KT 25/22 A2995 RMK A01 T02470218  RH  084%=      5-min Rain = 0
KMD1 131151Z 17003KT 25/22 A2995 RMK A01 T02470217  RH  084%=      5-min Rain = 0
KMD1 131152Z 17003KT 25/22 A2995 RMK A01 T02460218  RH  084%=      5-min Rain = 0
KMD1 131153Z 17003KT 25/22 A2995 RMK A01 T02460216  RH  084%=      5-min Rain = 0
KMD1 131154Z 18003KT 25/22 A2995 RMK A01 T02450216  RH  084%=      5-min Rain = 0
KMD1 131155Z 17003KT 24/22 A2995 RMK A01 T02440217  RH  085%=      5-min Rain = 0
KMD1 131156Z 18003KT 24/22 A2995 RMK A01 T02440218  RH  085%=      5-min Rain = 0
KMD1 131157Z 17003KT 24/22 A2995 RMK A01 T02440218  RH  085%=      5-min Rain = 0
KMD1 131158Z 18003KT 24/22 A2995 RMK A01 T02440217  RH  085%=      5-min Rain = 0
KMD1 131159Z 18003KT 24/22 A2995 RMK A01 T02440217  RH  085%=      5-min Rain = 0
KMD1 131200Z 17003KT 24/22 A2995 RMK A01 T02440218  RH  085%=      5-min Rain = 0
KMD1 131201Z 18003KT 24/22 A2995 RMK A01 T02440217  RH  085%=      5-min Rain = 0
KMD1 131202Z 18003KT 24/22 A2995 RMK A01 T02440217  RH  085%=      5-min Rain = 0
KMD1 131203Z 17003KT 24/22 A2995 RMK A01 T02440218  RH  085%=      5-min Rain = 0
KMD1 131204Z 17003KT 24/22 A2995 RMK A01 T02440218  RH  085%=      5-min Rain = 0
KMD1 131205Z 17003KT 24/22 A2995 RMK A01 T02440218  RH  085%=      5-min Rain = 0
KMD1 131206Z 16003KT 24/22 A2995 RMK A01 T02440218  RH  085%=      5-min Rain = 0
KMD1 131207Z 17003KT 24/22 A2995 RMK A01 T02440218  RH  085%=      5-min Rain = 0
KMD1 131208Z 17003KT 24/22 A2995 RMK A01 T02430217  RH  086%=      5-min Rain = 0
KMD1 131209Z 17003KT 24/22 A2995 RMK A01 T02430217  RH  085%=      5-min Rain = 0
KMD1 131210Z 17003KT 24/22 A2995 RMK A01 T02430217  RH  085%=      5-min Rain = 0
KMD1 131211Z 17003KT 24/22 A2995 RMK A01 T02430217  RH  085%=      5-min Rain = 0
KMD1 131212Z 17003KT 24/22 A2995 RMK A01 T02430217  RH  085%=      5-min Rain = 0
KMD1 131213Z 16004KT 24/22 A2995 RMK A01 T02430217  RH  085%=      5-min Rain = 0
KMD1 131214Z 16004KT 24/22 A2995 RMK A01 T02430217  RH  085%=      5-min Rain = 0
KMD1 131215Z 16004KT 24/22 A2995 RMK A01 T02430216  RH  085%=      5-min Rain = 0
KMD1 131216Z 16004KT 24/22 A2995 RMK A01 T02430217  RH  085%=      5-min Rain = 0
KMD1 131217Z 15003KT 24/22 A2995 RMK A01 T02430217  RH  085%=      5-min Rain = 0
KMD1 131218Z 16004KT 24/22 A2995 RMK A01 T02440217  RH  085%=      5-min Rain = 0
KMD1 131219Z 16004KT 24/22 A2995 RMK A01 T02430217  RH  085%=      5-min Rain = 0
KMD1 131220Z 16004KT 24/22 A2995 RMK A01 T02440217  RH  085%=      5-min Rain = 0
KMD1 131221Z 16003KT 24/22 A2995 RMK A01 T02440218  RH  085%=      5-min Rain = 0
KMD1 131222Z 17004KT 25/22 A2995 RMK A01 T02450218  RH  085%=      5-min Rain = 0
KMD1 131223Z 17003KT 25/22 A2995 RMK A01 T02450218  RH  084%=      5-min Rain = 0
KMD1 131224Z 17004KT 25/22 A2995 RMK A01 T02460218  RH  084%=      5-min Rain = 0
KMD1 131225Z 17004KT 25/22 A2995 RMK A01 T02460218  RH  084%=      5-min Rain = 0
KMD1 131226Z 18004KT 25/22 A2995 RMK A01 T02460218  RH  084%=      5-min Rain = 0
KMD1 131227Z 17003KT 25/22 A2995 RMK A01 T02460218  RH  084%=      5-min Rain = 0
KMD1 131228Z 17004KT 25/22 A2995 RMK A01 T02460218  RH  084%=      5-min Rain = 0
KMD1 131229Z 17004KT 25/22 A2995 RMK A01 T02460218  RH  084%=      5-min Rain = 0
KMD1 131230Z 18004KT 25/22 A2995 RMK A01 T02470218  RH  084%=      5-min Rain = 0
KMD1 131231Z 17003KT 25/22 A2995 RMK A01 T02470218  RH  084%=      5-min Rain = 0
KMD1 131232Z 16003KT 25/22 A2995 RMK A01 T02470218  RH  084%=      5-min Rain = 0
KMD1 131233Z 17002KT 25/22 A2995 RMK A01 T02470218  RH  084%=      5-min Rain = 0
KMD1 131234Z 18003KT 25/22 A2995 RMK A01 T02470218  RH  084%=      5-min Rain = 0
KMD1 131235Z 17003KT 25/22 A2995 RMK A01 T02480218  RH  084%=      5-min Rain = 0
KMD1 131236Z 16002KT 25/22 A2995 RMK A01 T02490219  RH  083%=      5-min Rain = 0
KMD1 131237Z 18004KT 25/22 A2995 RMK A01 T02490219  RH  083%=      5-min Rain = 0
KMD1 131238Z 18004KT 25/22 A2995 RMK A01 T02500219  RH  083%=      5-min Rain = 0
KMD1 131239Z 18004KT 25/22 A2995 RMK A01 T02500218  RH  083%=      5-min Rain = 0
KMD1 131240Z 18003KT 25/22 A2995 RMK A01 T02500219  RH  083%=      5-min Rain = 0
KMD1 131241Z 19003KT 25/22 A2995 RMK A01 T02510219  RH  082%=      5-min Rain = 0
KMD1 131242Z 18003KT 25/22 A2995 RMK A01 T02510219  RH  082%=      5-min Rain = 0
KMD1 131243Z 18002KT 25/22 A2995 RMK A01 T02510219  RH  082%=      5-min Rain = 0
KMD1 131244Z 18002KT 25/22 A2995 RMK A01 T02510219  RH  083%=      5-min Rain = 0
KMD1 131245Z 19004KT 25/22 A2995 RMK A01 T02510219  RH  083%=      5-min Rain = 0
KMD1 131246Z 18003KT 25/22 A2995 RMK A01 T02510219  RH  082%=      5-min Rain = 0
KMD1 131247Z 18003KT 25/22 A2995 RMK A01 T02510219  RH  082%=      5-min Rain = 0
KMD1 131248Z 18003KT 25/22 A2995 RMK A01 T02510219  RH  083%=      5-min Rain = 0
KMD1 131249Z 18004KT 25/22 A2995 RMK A01 T02510220  RH  083%=      5-min Rain = 0
KMD1 131250Z 17004KT 25/22 A2995 RMK A01 T02510219  RH  083%=      5-min Rain = 0
KMD1 131251Z 18004KT 25/22 A2995 RMK A01 T02510220  RH  083%=      5-min Rain = 0
KMD1 131252Z 18003KT 25/22 A2995 RMK A01 T02520220  RH  082%=      5-min Rain = 0
KMD1 131253Z 18003KT 25/22 A2995 RMK A01 T02520220  RH  082%=      5-min Rain = 0
KMD1 131254Z 18003KT 25/22 A2995 RMK A01 T02520219  RH  082%=      5-min Rain = 0
KMD1 131255Z 18003KT 25/22 A2995 RMK A01 T02530220  RH  082%=      5-min Rain = 0
KMD1 131256Z 19002KT 25/22 A2995 RMK A01 T02530220  RH  082%=      5-min Rain = 0
KMD1 131257Z 18002KT 25/22 A2995 RMK A01 T02530220  RH  082%=      5-min Rain = 0
KMD1 131258Z 19003KT 25/22 A2995 RMK A01 T02540221  RH  082%=      5-min Rain = 0
KMD1 131259Z 19003KT 25/22 A2995 RMK A01 T02540220  RH  081%=      5-min Rain = 0
KMD1 131300Z 18003KT 25/22 A2995 RMK A01 T02540220  RH  082%=      5-min Rain = 0
KMD1 131301Z 19003KT 25/22 A2995 RMK A01 T02540220  RH  081%=      5-min Rain = 0
KMD1 131302Z 19004KT 25/22 A2995 RMK A01 T02540220  RH  081%=      5-min Rain = 0
KMD1 131303Z 19003KT 26/22 A2995 RMK A01 T02550220  RH  081%=      5-min Rain = 0
KMD1 131304Z 18003KT 26/22 A2996 RMK A01 T02550221  RH  081%=      5-min Rain = 0
KMD1 131305Z 18003KT 26/22 A2996 RMK A01 T02550221  RH  081%=      5-min Rain = 0
KMD1 131306Z 19004KT 26/22 A2996 RMK A01 T02560220  RH  081%=      5-min Rain = 0
KMD1 131307Z 19005KT 26/22 A2996 RMK A01 T02560220  RH  080%=      5-min Rain = 0
KMD1 131308Z 19004KT 26/22 A2996 RMK A01 T02560219  RH  080%=      5-min Rain = 0
KMD1 131309Z 20002KT 26/22 A2995 RMK A01 T02570220  RH  080%=      5-min Rain = 0
KMD1 131310Z 20003KT 26/22 A2995 RMK A01 T02570220  RH  080%=      5-min Rain = 0
KMD1 131311Z 18005KT 26/22 A2995 RMK A01 T02570220  RH  080%=      5-min Rain = 0
KMD1 131312Z 18005KT 26/22 A2995 RMK A01 T02570220  RH  080%=      5-min Rain = 0
KMD1 131313Z 18005KT 26/22 A2995 RMK A01 T02570220  RH  080%=      5-min Rain = 0
KMD1 131314Z 18004KT 26/22 A2995 RMK A01 T02570220  RH  080%=      5-min Rain = 0
KMD1 131315Z 18004KT 26/22 A2995 RMK A01 T02580220  RH  080%=      5-min Rain = 0
KMD1 131316Z 18004KT 26/22 A2996 RMK A01 T02590222  RH  080%=      5-min Rain = 0
KMD1 131317Z 18006KT 26/22 A2996 RMK A01 T02590221  RH  079%=      5-min Rain = 0
KMD1 131318Z 18005KT 26/22 A2996 RMK A01 T02600219  RH  078%=      5-min Rain = 0
KMD1 131319Z 18005KT 26/22 A2996 RMK A01 T02600220  RH  079%=      5-min Rain = 0
KMD1 131320Z 17007KT 26/22 A2996 RMK A01 T02600219  RH  078%=      5-min Rain = 0
KMD1 131321Z 18007KT 26/22 A2996 RMK A01 T02600218  RH  078%=      5-min Rain = 0
KMD1 131322Z 18006KT 26/22 A2996 RMK A01 T02600218  RH  078%=      5-min Rain = 0
KMD1 131323Z 19005KT 26/22 A2996 RMK A01 T02600218  RH  078%=      5-min Rain = 0
KMD1 131324Z 17004KT 26/22 A2996 RMK A01 T02610219  RH  078%=      5-min Rain = 0
KMD1 131325Z 17007KT 26/22 A2996 RMK A01 T02610220  RH  078%=      5-min Rain = 0
KMD1 131326Z 17008KT 26/22 A2996 RMK A01 T02620218  RH  077%=      5-min Rain = 0
KMD1 131327Z 18006KT 26/22 A2996 RMK A01 T02620219  RH  077%=      5-min Rain = 0
KMD1 131328Z 18006KT 26/22 A2996 RMK A01 T02620217  RH  076%=      5-min Rain = 0
KMD1 131329Z 18008KT 26/22 A2996 RMK A01 T02620218  RH  077%=      5-min Rain = 0
KMD1 131330Z 18007KT 26/22 A2996 RMK A01 T02620218  RH  077%=      5-min Rain = 0
KMD1 131331Z 19007KT 26/22 A2996 RMK A01 T02630218  RH  076%=      5-min Rain = 0
KMD1 131332Z 17006KT 26/22 A2996 RMK A01 T02630218  RH  076%=      5-min Rain = 0
KMD1 131333Z 19006G11KT 26/22 A2996 RMK A01 T02630217  RH  076%=      5-min Rain = 0
KMD1 131334Z 19005KT 26/22 A2996 RMK A01 T02640217  RH  076%=      5-min Rain = 0
KMD1 131335Z 19006KT 26/22 A2996 RMK A01 T02640218  RH  076%=      5-min Rain = 0
KMD1 131336Z 18007KT 27/22 A2996 RMK A01 T02650217  RH  075%=      5-min Rain = 0
KMD1 131337Z 18007KT 27/22 A2996 RMK A01 T02650216  RH  075%=      5-min Rain = 0
KMD1 131338Z 18007KT 27/22 A2996 RMK A01 T02650216  RH  075%=      5-min Rain = 0
KMD1 131339Z 19006KT 27/22 A2996 RMK A01 T02650216  RH  074%=      5-min Rain = 0
KMD1 131340Z 19006KT 27/22 A2996 RMK A01 T02650216  RH  074%=      5-min Rain = 0
KMD1 131341Z 19008KT 27/22 A2996 RMK A01 T02660216  RH  074%=      5-min Rain = 0
KMD1 131342Z 18008KT 27/22 A2996 RMK A01 T02670217  RH  074%=      5-min Rain = 0
KMD1 131343Z 17010KT 27/22 A2996 RMK A01 T02670215  RH  073%=      5-min Rain = 0
KMD1 131344Z 17009KT 27/22 A2996 RMK A01 T02670215  RH  073%=      5-min Rain = 0
KMD1 131345Z 17009KT 27/21 A2996 RMK A01 T02670214  RH  073%=      5-min Rain = 0
KMD1 131346Z 17010KT 27/21 A2996 RMK A01 T02680213  RH  072%=      5-min Rain = 0
KMD1 131347Z 18008KT 27/21 A2996 RMK A01 T02690213  RH  071%=      5-min Rain = 0
KMD1 131348Z 18006KT 27/22 A2996 RMK A01 T02690215  RH  072%=      5-min Rain = 0
KMD1 131349Z 18006KT 27/22 A2997 RMK A01 T02700216  RH  073%=      5-min Rain = 0
KMD1 131350Z 18008KT 27/21 A2997 RMK A01 T02710214  RH  071%=      5-min Rain = 0
KMD1 131351Z 16008KT 27/21 A2997 RMK A01 T02710214  RH  071%=      5-min Rain = 0
KMD1 131352Z 19007KT 27/21 A2997 RMK A01 T02710214  RH  071%=      5-min Rain = 0
KMD1 131353Z 20005KT 27/21 A2997 RMK A01 T02710214  RH  071%=      5-min Rain = 0
KMD1 131354Z 18008KT 27/21 A2997 RMK A01 T02710214  RH  071%=      5-min Rain = 0
KMD1 131355Z 18009KT 27/21 A2997 RMK A01 T02710212  RH  070%=      5-min Rain = 0
KMD1 131356Z 17008KT 27/21 A2997 RMK A01 T02720211  RH  069%=      5-min Rain = 0
KMD1 131357Z 18006KT 27/21 A2997 RMK A01 T02730211  RH  069%=      5-min Rain = 0
KMD1 131358Z 19005KT 27/21 A2997 RMK A01 T02740212  RH  069%=      5-min Rain = 0
KMD1 131359Z 19006KT 27/21 A2997 RMK A01 T02740213  RH  069%=      5-min Rain = 0
KMD1 131400Z 19008KT 28/21 A2997 RMK A01 T02750213  RH  069%=      5-min Rain = 0
KMD1 131401Z 18010KT 27/21 A2997 RMK A01 T02740211  RH  068%=      5-min Rain = 0
KMD1 131402Z 17009KT 27/21 A2997 RMK A01 T02740211  RH  068%=      5-min Rain = 0
KMD1 131403Z 18008KT 27/21 A2997 RMK A01 T02740210  RH  068%=      5-min Rain = 0
KMD1 131404Z 19008KT 27/21 A2997 RMK A01 T02740211  RH  068%=      5-min Rain = 0
KMD1 131405Z 19008KT 27/21 A2997 RMK A01 T02740211  RH  068%=      5-min Rain = 0
KMD1 131406Z 19009KT 28/21 A2997 RMK A01 T02750210  RH  068%=      5-min Rain = 0
KMD1 131407Z 20007KT 28/21 A2997 RMK A01 T02750210  RH  067%=      5-min Rain = 0
KMD1 131408Z 20008KT 28/21 A2997 RMK A01 T02760211  RH  068%=      5-min Rain = 0
KMD1 131409Z 18008KT 28/21 A2997 RMK A01 T02760211  RH  067%=      5-min Rain = 0
KMD1 131410Z 18007KT 28/21 A2997 RMK A01 T02770210  RH  067%=      5-min Rain = 0
KMD1 131411Z 18010KT 28/21 A2997 RMK A01 T02780210  RH  066%=      5-min Rain = 0
KMD1 131412Z 19008KT 28/21 A2997 RMK A01 T02780210  RH  066%=      5-min Rain = 0
KMD1 131413Z 19008KT 28/21 A2997 RMK A01 T02790210  RH  066%=      5-min Rain = 0
KMD1 131414Z 18009KT 28/21 A2997 RMK A01 T02790210  RH  066%=      5-min Rain = 0
KMD1 131415Z 18009KT 28/21 A2997 RMK A01 T02790209  RH  066%=      5-min Rain = 0
KMD1 131416Z 18007KT 28/21 A2997 RMK A01 T02800209  RH  065%=      5-min Rain = 0
KMD1 131417Z 18009KT 28/21 A2997 RMK A01 T02800209  RH  066%=      5-min Rain = 0
KMD1 131418Z 18010KT 28/21 A2997 RMK A01 T02810208  RH  065%=      5-min Rain = 0
KMD1 131419Z 18009KT 28/21 A2997 RMK A01 T02820208  RH  064%=      5-min Rain = 0
KMD1 131420Z 19006KT 28/21 A2997 RMK A01 T02820210  RH  065%=      5-min Rain = 0
KMD1 131421Z 19008KT 28/21 A2997 RMK A01 T02830208  RH  064%=      5-min Rain = 0
KMD1 131422Z 19006KT 28/21 A2997 RMK A01 T02830209  RH  064%=      5-min Rain = 0
KMD1 131423Z 18005KT 28/21 A2997 RMK A01 T02830211  RH  065%=      5-min Rain = 0
KMD1 131424Z 18005KT 28/21 A2997 RMK A01 T02840212  RH  065%=      5-min Rain = 0
KMD1 131425Z 17009KT 29/21 A2997 RMK A01 T02860208  RH  063%=      5-min Rain = 0
KMD1 131426Z 18008KT 29/21 A2997 RMK A01 T02860208  RH  063%=      5-min Rain = 0
KMD1 131427Z 18009KT 29/21 A2997 RMK A01 T02850207  RH  063%=      5-min Rain = 0
KMD1 131428Z 18008KT 29/21 A2997 RMK A01 T02860208  RH  063%=      5-min Rain = 0
KMD1 131429Z 18008KT 29/21 A2997 RMK A01 T02860206  RH  062%=      5-min Rain = 0
KMD1 131430Z 18007KT 29/21 A2997 RMK A01 T02860207  RH  062%=      5-min Rain = 0
KMD1 131431Z 20008KT 29/21 A2997 RMK A01 T02870206  RH  062%=      5-min Rain = 0
KMD1 131432Z 20008KT 29/21 A2998 RMK A01 T02870207  RH  062%=      5-min Rain = 0
KMD1 131433Z 19008KT 29/21 A2997 RMK A01 T02860206  RH  062%=      5-min Rain = 0
KMD1 131434Z 19007KT 29/21 A2998 RMK A01 T02860207  RH  062%=      5-min Rain = 0
KMD1 131435Z 19009KT 29/20 A2998 RMK A01 T02850204  RH  061%=      5-min Rain = 0
KMD1 131436Z 19007KT 29/21 A2998 RMK A01 T02860205  RH  062%=      5-min Rain = 0
KMD1 131437Z 18006KT 29/21 A2998 RMK A01 T02860205  RH  062%=      5-min Rain = 0
KMD1 131438Z 19007KT 29/20 A2998 RMK A01 T02870204  RH  061%=      5-min Rain = 0
KMD1 131439Z 19008KT 29/21 A2998 RMK A01 T02870205  RH  061%=      5-min Rain = 0
KMD1 131440Z 19007KT 29/21 A2998 RMK A01 T02870206  RH  061%=      5-min Rain = 0
KMD1 131441Z 18008KT 29/21 A2998 RMK A01 T02880205  RH  061%=      5-min Rain = 0
KMD1 131442Z 18008KT 29/20 A2998 RMK A01 T02880204  RH  060%=      5-min Rain = 0
KMD1 131443Z 18009KT 29/21 A2998 RMK A01 T02900206  RH  060%=      5-min Rain = 0
KMD1 131444Z 18008KT 29/20 A2998 RMK A01 T02920204  RH  059%=      5-min Rain = 0
KMD1 131445Z 18008KT 29/20 A2998 RMK A01 T02940204  RH  058%=      5-min Rain = 0
KMD1 131446Z 19007KT 29/20 A2998 RMK A01 T02940204  RH  059%=      5-min Rain = 0
KMD1 131447Z 19007KT 29/21 A2998 RMK A01 T02940207  RH  060%=      5-min Rain = 0
KMD1 131448Z 19008KT 30/20 A2998 RMK A01 T02950204  RH  058%=      5-min Rain = 0
KMD1 131449Z 17008KT 30/20 A2998 RMK A01 T02950203  RH  058%=      5-min Rain = 0
KMD1 131450Z 20009KT 30/20 A2998 RMK A01 T02950202  RH  058%=      5-min Rain = 0
KMD1 131451Z 20008KT 30/20 A2998 RMK A01 T02950202  RH  057%=      5-min Rain = 0
KMD1 131452Z 19007KT 29/20 A2998 RMK A01 T02940203  RH  058%=      5-min Rain = 0
KMD1 131453Z 19006KT 29/21 A2998 RMK A01 T02940205  RH  059%=      5-min Rain = 0
KMD1 131454Z 19008KT 29/21 A2998 RMK A01 T02940205  RH  058%=      5-min Rain = 0
KMD1 131455Z 19008KT 30/20 A2998 RMK A01 T02950200  RH  056%=      5-min Rain = 0
KMD1 131456Z 19009KT 30/20 A2998 RMK A01 T02950201  RH  057%=      5-min Rain = 0
KMD1 131457Z 19009KT 30/20 A2998 RMK A01 T02950200  RH  057%=      5-min Rain = 0
KMD1 131458Z 17010KT 30/20 A2998 RMK A01 T02960198  RH  056%=      5-min Rain = 0
KMD1 131459Z 19011KT 30/20 A2998 RMK A01 T02960199  RH  056%=      5-min Rain = 0
KMD1 131500Z 19010KT 30/20 A2998 RMK A01 T02980199  RH  055%=      5-min Rain = 0
KMD1 131501Z 20008KT 30/20 A2998 RMK A01 T02980202  RH  056%=      5-min Rain = 0
KMD1 131502Z 18010KT 30/20 A2998 RMK A01 T02980199  RH  055%=      5-min Rain = 0
KMD1 131503Z 19008KT 30/20 A2998 RMK A01 T02990199  RH  055%=      5-min Rain = 0
KMD1 131504Z 19008KT 30/20 A2998 RMK A01 T03000201  RH  055%=      5-min Rain = 0
KMD1 131505Z 20009KT 30/20 A2998 RMK A01 T03010199  RH  054%=      5-min Rain = 0
KMD1 131506Z 19007KT 30/20 A2998 RMK A01 T03010200  RH  054%=      5-min Rain = 0
KMD1 131507Z 19008KT 30/20 A2998 RMK A01 T03020199  RH  054%=      5-min Rain = 0
KMD1 131508Z 18009KT 30/20 A2998 RMK A01 T03030199  RH  054%=      5-min Rain = 0
KMD1 131509Z 18009KT 30/20 A2998 RMK A01 T03020200  RH  054%=      5-min Rain = 0
KMD1 131510Z 19007KT 30/20 A2998 RMK A01 T03020197  RH  053%=      5-min Rain = 0
KMD1 131511Z 21006KT 30/20 A2998 RMK A01 T03030200  RH  054%=      5-min Rain = 0
KMD1 131512Z 19007KT 30/20 A2998 RMK A01 T03030201  RH  054%=      5-min Rain = 0
KMD1 131513Z 19007KT 30/20 A2998 RMK A01 T03030197  RH  053%=      5-min Rain = 0
KMD1 131514Z 19007KT 30/20 A2998 RMK A01 T03030199  RH  054%=      5-min Rain = 0
KMD1 131515Z 20007KT 30/20 A2998 RMK A01 T03030201  RH  054%=      5-min Rain = 0
KMD1 131516Z 18008KT 30/20 A2998 RMK A01 T03030201  RH  054%=      5-min Rain = 0
KMD1 131517Z 18007KT 30/20 A2998 RMK A01 T03040199  RH  054%=      5-min Rain = 0
KMD1 131518Z 18009KT 31/20 A2998 RMK A01 T03050199  RH  053%=      5-min Rain = 0
KMD1 131519Z 19008KT 31/20 A2998 RMK A01 T03060197  RH  052%=      5-min Rain = 0
KMD1 131520Z 16008KT 31/20 A2998 RMK A01 T03050199  RH  053%=      5-min Rain = 0
KMD1 131521Z 18009KT 31/20 A2998 RMK A01 T03070197  RH  052%=      5-min Rain = 0
KMD1 131522Z 17009KT 31/20 A2998 RMK A01 T03080195  RH  051%=      5-min Rain = 0
KMD1 131523Z 17009KT 31/20 A2998 RMK A01 T03080199  RH  052%=      5-min Rain = 0
KMD1 131524Z 18008KT 31/20 A2998 RMK A01 T03080196  RH  051%=      5-min Rain = 0
KMD1 131525Z 18007KT 31/19 A2998 RMK A01 T03080193  RH  050%=      5-min Rain = 0
KMD1 131526Z 21008KT 31/19 A2998 RMK A01 T03080194  RH  051%=      5-min Rain = 0
KMD1 131527Z 21008KT 31/19 A2998 RMK A01 T03070194  RH  051%=      5-min Rain = 0
KMD1 131528Z 20005KT 31/20 A2998 RMK A01 T03070196  RH  052%=      5-min Rain = 0
KMD1 131529Z 21008KT 31/20 A2998 RMK A01 T03070196  RH  052%=      5-min Rain = 0
KMD1 131530Z 21008KT 31/20 A2998 RMK A01 T03070196  RH  052%=      5-min Rain = 0
KMD1 131531Z 20008KT 31/20 A2998 RMK A01 T03080196  RH  051%=      5-min Rain = 0
KMD1 131532Z 21007KT 31/20 A2998 RMK A01 T03080197  RH  052%=      5-min Rain = 0
KMD1 131533Z 19005KT 31/20 A2998 RMK A01 T03100198  RH  052%=      5-min Rain = 0
KMD1 131534Z 19005KT 31/20 A2998 RMK A01 T03120197  RH  050%=      5-min Rain = 0
KMD1 131535Z 17009KT 31/20 A2998 RMK A01 T03140196  RH  050%=      5-min Rain = 0
KMD1 131536Z 18011KT 32/19 A2998 RMK A01 T03150192  RH  048%=      5-min Rain = 0
KMD1 131537Z 19009KT 31/19 A2998 RMK A01 T03130192  RH  048%=      5-min Rain = 0
KMD1 131538Z 17008KT 31/19 A2998 RMK A01 T03130192  RH  049%=      5-min Rain = 0
KMD1 131539Z 17008KT 31/19 A2998 RMK A01 T03120193  RH  049%=      5-min Rain = 0
KMD1 131540Z 18010KT 31/19 A2998 RMK A01 T03140193  RH  049%=      5-min Rain = 0
KMD1 131541Z 17011KT 32/19 A2998 RMK A01 T03150192  RH  048%=      5-min Rain = 0
KMD1 131542Z 17010KT 32/19 A2998 RMK A01 T03160189  RH  047%=      5-min Rain = 0
KMD1 131543Z 17008KT 32/19 A2998 RMK A01 T03150192  RH  048%=      5-min Rain = 0
KMD1 131544Z 18008KT 32/19 A2998 RMK A01 T03150192  RH  048%=      5-min Rain = 0
KMD1 131545Z 18008KT 32/19 A2998 RMK A01 T03170190  RH  047%=      5-min Rain = 0
KMD1 131546Z 19007KT 32/19 A2998 RMK A01 T03170193  RH  048%=      5-min Rain = 0
KMD1 131547Z 17008KT 32/19 A2998 RMK A01 T03180194  RH  048%=      5-min Rain = 0
KMD1 131548Z 17010KT 32/19 A2998 RMK A01 T03200191  RH  047%=      5-min Rain = 0
KMD1 131549Z 17009KT 32/19 A2998 RMK A01 T03190191  RH  047%=      5-min Rain = 0
KMD1 131550Z 17010KT 32/19 A2998 RMK A01 T03190190  RH  046%=      5-min Rain = 0
KMD1 131551Z 17009KT 32/19 A2998 RMK A01 T03200188  RH  046%=      5-min Rain = 0
KMD1 131552Z 19008KT 32/19 A2998 RMK A01 T03190189  RH  046%=      5-min Rain = 0
KMD1 131553Z 20008KT 32/19 A2998 RMK A01 T03190189  RH  046%=      5-min Rain = 0
KMD1 131554Z 19009KT 32/19 A2998 RMK A01 T03180190  RH  047%=      5-min Rain = 0
KMD1 131555Z 18008KT 32/19 A2998 RMK A01 T03170189  RH  047%=      5-min Rain = 0
KMD1 131556Z 19008KT 32/19 A2998 RMK A01 T03180190  RH  047%=      5-min Rain = 0
KMD1 131557Z 20009KT 32/19 A2998 RMK A01 T03200191  RH  046%=      5-min Rain = 0
KMD1 131558Z 19006KT 32/19 A2998 RMK A01 T03210192  RH  047%=      5-min Rain = 0
KMD1 131559Z 20009KT 32/19 A2998 RMK A01 T03200193  RH  047%=      5-min Rain = 0
KMD1 131600Z 19006KT 32/19 A2998 RMK A01 T03210191  RH  046%=      5-min Rain = 0
KMD1 131601Z 19007KT 32/19 A2998 RMK A01 T03210194  RH  047%=      5-min Rain = 0
KMD1 131602Z 19005KT 32/19 A2998 RMK A01 T03220193  RH  046%=      5-min Rain = 0
KMD1 131603Z 20008KT 32/19 A2999 RMK A01 T03240194  RH  046%=      5-min Rain = 0
KMD1 131604Z 17008KT 33/19 A2999 RMK A01 T03260192  RH  045%=      5-min Rain = 0
KMD1 131605Z 18009KT 33/19 A2999 RMK A01 T03270189  RH  044%=      5-min Rain = 0
KMD1 131606Z 20008KT 33/19 A2999 RMK A01 T03270189  RH  044%=      5-min Rain = 0
KMD1 131607Z 20008KT 33/19 A2999 RMK A01 T03250187  RH  044%=      5-min Rain = 0
KMD1 131608Z 20006KT 32/19 A2999 RMK A01 T03230190  RH  045%=      5-min Rain = 0
KMD1 131609Z 20006KT 32/19 A2999 RMK A01 T03240192  RH  045%=      5-min Rain = 0
KMD1 131610Z 21007KT 33/20 A2999 RMK A01 T03270195  RH  046%=      5-min Rain = 0
KMD1 131611Z 19008KT 33/19 A2999 RMK A01 T03280193  RH  045%=      5-min Rain = 0
KMD1 131612Z 20007KT 33/19 A2999 RMK A01 T03280192  RH  044%=      5-min Rain = 0
KMD1 131613Z 18006KT 33/19 A2999 RMK A01 T03280190  RH  044%=      5-min Rain = 0
KMD1 131614Z 20007KT 33/19 A2999 RMK A01 T03270192  RH  045%=      5-min Rain = 0
KMD1 131615Z 20007KT 33/20 A2999 RMK A01 T03280195  RH  045%=      5-min Rain = 0
KMD1 131616Z 19009G14KT 33/19 A2999 RMK A01 T03300194  RH  045%=      5-min Rain = 0
KMD1 131617Z 18006KT 33/19 A2999 RMK A01 T03320192  RH  044%=      5-min Rain = 0
KMD1 131618Z 16006KT 33/19 A2999 RMK A01 T03320192  RH  044%=      5-min Rain = 0
KMD1 131619Z 20004KT 34/19 A2999 RMK A01 T03350194  RH  044%=      5-min Rain = 0
KMD1 131620Z 22004KT 34/19 A2999 RMK A01 T03370194  RH  043%=      5-min Rain = 0
KMD1 131621Z 21004KT 34/19 A2999 RMK A01 T03380193  RH  043%=      5-min Rain = 0
KMD1 131622Z 19004KT 34/20 A2999 RMK A01 T03370197  RH  044%=      5-min Rain = 0
KMD1 131623Z 18005KT 34/20 A2998 RMK A01 T03370198  RH  044%=      5-min Rain = 0
KMD1 131624Z 17009KT 34/19 A2998 RMK A01 T03380192  RH  042%=      5-min Rain = 0
KMD1 131625Z 17009KT 34/19 A2998 RMK A01 T03360194  RH  043%=      5-min Rain = 0
KMD1 131626Z 18007KT 34/19 A2998 RMK A01 T03370194  RH  043%=      5-min Rain = 0
KMD1 131627Z 19007KT 34/19 A2998 RMK A01 T03380193  RH  042%=      5-min Rain = 0
KMD1 131628Z 18006KT 34/19 A2998 RMK A01 T03370191  RH  042%=      5-min Rain = 0
KMD1 131629Z 17006KT 34/19 A2998 RMK A01 T03350192  RH  043%=      5-min Rain = 0
KMD1 131630Z 18008KT 34/19 A2998 RMK A01 T03350192  RH  043%=      5-min Rain = 0
KMD1 131631Z 18008KT 34/19 A2998 RMK A01 T03370189  RH  042%=      5-min Rain = 0
KMD1 131632Z 16009KT 34/19 A2998 RMK A01 T03380188  RH  041%=      5-min Rain = 0
KMD1 131633Z 17006KT 34/19 A2998 RMK A01 T03380189  RH  041%=      5-min Rain = 0
KMD1 131634Z 17007KT 34/19 A2998 RMK A01 T03390188  RH  041%=      5-min Rain = 0
KMD1 131635Z 17009KT 34/19 A2998 RMK A01 T03400187  RH  040%=      5-min Rain = 0
KMD1 131636Z 18007KT 34/19 A2998 RMK A01 T03390187  RH  041%=      5-min Rain = 0
KMD1 131637Z 20006KT 34/19 A2998 RMK A01 T03370188  RH  041%=      5-min Rain = 0
KMD1 131638Z 19009KT 34/19 A2998 RMK A01 T03380188  RH  041%=      5-min Rain = 0
KMD1 131639Z 20007KT 34/19 A2998 RMK A01 T03380189  RH  041%=      5-min Rain = 0
KMD1 131640Z 19005KT 34/19 A2998 RMK A01 T03380188  RH  041%=      5-min Rain = 0
KMD1 131641Z 19005KT 34/19 A2998 RMK A01 T03380190  RH  042%=      5-min Rain = 0
KMD1 131642Z 20005KT 34/19 A2998 RMK A01 T03400186  RH  040%=      5-min Rain = 0
KMD1 131643Z 20006KT 34/19 A2998 RMK A01 T03400188  RH  041%=      5-min Rain = 0
KMD1 131644Z 19007KT 34/19 A2998 RMK A01 T03390189  RH  041%=      5-min Rain = 0
KMD1 131645Z 17007KT 34/19 A2998 RMK A01 T03390185  RH  040%=      5-min Rain = 0
KMD1 131646Z 19008KT 34/19 A2998 RMK A01 T03410187  RH  040%=      5-min Rain = 0
KMD1 131647Z 17008G13KT 34/19 A2998 RMK A01 T03430185  RH  039%=      5-min Rain = 0
KMD1 131648Z 20007KT 34/19 A2998 RMK A01 T03410186  RH  040%=      5-min Rain = 0
KMD1 131649Z 19007KT 34/19 A2998 RMK A01 T03410187  RH  040%=      5-min Rain = 0
KMD1 131650Z 17008KT 34/19 A2998 RMK A01 T03410189  RH  041%=      5-min Rain = 0
KMD1 131651Z 19006KT 34/19 A2998 RMK A01 T03430186  RH  040%=      5-min Rain = 0
KMD1 131652Z 21005KT 34/19 A2998 RMK A01 T03420189  RH  040%=      5-min Rain = 0
KMD1 131653Z 18005KT 34/19 A2998 RMK A01 T03420190  RH  041%=      5-min Rain = 0
KMD1 131654Z 18007KT 34/19 A2998 RMK A01 T03440190  RH  040%=      5-min Rain = 0
KMD1 131655Z 19009KT 35/19 A2998 RMK A01 T03480190  RH  039%=      5-min Rain = 0
KMD1 131656Z 19007KT 35/18 A2998 RMK A01 T03500184  RH  038%=      5-min Rain = 0
KMD1 131657Z 20004KT 35/18 A2998 RMK A01 T03470184  RH  038%=      5-min Rain = 0
KMD1 131658Z 19006KT 35/19 A2998 RMK A01 T03450185  RH  039%=      5-min Rain = 0
KMD1 131659Z 19007KT 35/19 A2998 RMK A01 T03450187  RH  039%=      5-min Rain = 0
KMD1 131700Z 18007KT 35/19 A2998 RMK A01 T03470186  RH  039%=      5-min Rain = 0
KMD1 131701Z 19006KT 35/18 A2998 RMK A01 T03450184  RH  039%=      5-min Rain = 0
KMD1 131702Z 19007KT 34/19 A2998 RMK A01 T03440189  RH  040%=      5-min Rain = 0
KMD1 131703Z 19005KT 35/19 A2998 RMK A01 T03450185  RH  039%=      5-min Rain = 0
KMD1 131704Z 18005KT 35/19 A2998 RMK A01 T03450187  RH  039%=      5-min Rain = 0
KMD1 131705Z 19009KT 35/19 A2998 RMK A01 T03480188  RH  039%=      5-min Rain = 0
KMD1 131706Z 20009KT 35/19 A2998 RMK A01 T03480188  RH  039%=      5-min Rain = 0
KMD1 131707Z 21006KT 35/19 A2998 RMK A01 T03470188  RH  039%=      5-min Rain = 0
KMD1 131708Z 20006KT 35/19 A2998 RMK A01 T03460190  RH  040%=      5-min Rain = 0
KMD1 131709Z 19006KT 35/19 A2998 RMK A01 T03470186  RH  039%=      5-min Rain = 0
KMD1 131710Z 23004KT 35/19 A2998 RMK A01 T03470185  RH  039%=      5-min Rain = 0
KMD1 131711Z 22006KT 35/18 A2998 RMK A01 T03460184  RH  039%=      5-min Rain = 0
KMD1 131712Z 21006KT 35/18 A2998 RMK A01 T03460180  RH  038%=      5-min Rain = 0
KMD1 131713Z 20004KT 35/18 A2998 RMK A01 T03450184  RH  039%=      5-min Rain = 0
KMD1 131714Z 19008KT 35/19 A2998 RMK A01 T03480186  RH  039%=      5-min Rain = 0
KMD1 131715Z 20006KT 35/18 A2998 RMK A01 T03480183  RH  038%=      5-min Rain = 0
KMD1 131716Z 19008KT 35/19 A2998 RMK A01 T03470185  RH  039%=      5-min Rain = 0
KMD1 131717Z 22004KT 35/19 A2998 RMK A01 T03480186  RH  038%=      5-min Rain = 0
KMD1 131718Z 20004KT 35/18 A2998 RMK A01 T03500184  RH  038%=      5-min Rain = 0
KMD1 131719Z 19005KT 35/18 A2998 RMK A01 T03500184  RH  038%=      5-min Rain = 0
KMD1 131720Z 20004KT 35/19 A2998 RMK A01 T03500186  RH  038%=      5-min Rain = 0
KMD1 131721Z 18003KT 35/18 A2998 RMK A01 T03510181  RH  037%=      5-min Rain = 0
KMD1 131722Z 16002KT 35/18 A2998 RMK A01 T03520179  RH  036%=      5-min Rain = 0
KMD1 131723Z 17004KT 35/18 A2998 RMK A01 T03520184  RH  037%=      5-min Rain = 0
KMD1 131724Z 19006KT 36/19 A2998 RMK A01 T03570187  RH  037%=      5-min Rain = 0
KMD1 131725Z 19004KT 36/19 A2998 RMK A01 T03570186  RH  037%=      5-min Rain = 0
KMD1 131726Z 20005KT 36/19 A2998 RMK A01 T03560187  RH  037%=      5-min Rain = 0
KMD1 131727Z 21004KT 36/19 A2998 RMK A01 T03550187  RH  037%=      5-min Rain = 0
KMD1 131728Z 19002KT 36/19 A2998 RMK A01 T03550187  RH  037%=      5-min Rain = 0
KMD1 131729Z 21002KT 36/19 A2998 RMK A01 T03560186  RH  037%=      5-min Rain = 0
KMD1 131730Z 23002KT 36/19 A2998 RMK A01 T03580185  RH  036%=      5-min Rain = 0
KMD1 131731Z 20002KT 36/19 A2998 RMK A01 T03580188  RH  037%=      5-min Rain = 0
KMD1 131732Z 14006KT 36/18 A2998 RMK A01 T03600183  RH  035%=      5-min Rain = 0
KMD1 131733Z 15008KT 36/18 A2998 RMK A01 T03630180  RH  034%=      5-min Rain = 0
KMD1 131734Z 16006KT 36/18 A2998 RMK A01 T03620178  RH  034%=      5-min Rain = 0
KMD1 131735Z 15005KT 36/18 A2998 RMK A01 T03600178  RH  034%=      5-min Rain = 0
KMD1 131736Z 19005KT 36/18 A2998 RMK A01 T03600180  RH  035%=      5-min Rain = 0
KMD1 131737Z 22006KT 36/18 A2998 RMK A01 T03620181  RH  035%=      5-min Rain = 0
KMD1 131738Z 23006KT 36/18 A2998 RMK A01 T03620179  RH  034%=      5-min Rain = 0
KMD1 131739Z 26004KT 36/18 A2998 RMK A01 T03600179  RH  034%=      5-min Rain = 0
KMD1 131740Z 27003KT 36/18 A2998 RMK A01 T03570179  RH  035%=      5-min Rain = 0
KMD1 131741Z 24004KT 36/18 A2998 RMK A01 T03570179  RH  035%=      5-min Rain = 0
KMD1 131742Z 22006KT 36/18 A2998 RMK A01 T03590182  RH  035%=      5-min Rain = 0
KMD1 131743Z 22006KT 36/18 A2998 RMK A01 T03590179  RH  035%=      5-min Rain = 0
KMD1 131744Z 23005KT 36/18 A2997 RMK A01 T03580176  RH  034%=      5-min Rain = 0
KMD1 131745Z 21007KT 36/18 A2997 RMK A01 T03580179  RH  035%=      5-min Rain = 0
KMD1 131746Z 19005KT 36/18 A2997 RMK A01 T03590176  RH  034%=      5-min Rain = 0
KMD1 131747Z 19003KT 36/17 A2997 RMK A01 T03580174  RH  034%=      5-min Rain = 0
KMD1 131748Z 20005KT 36/18 A2997 RMK A01 T03580181  RH  035%=      5-min Rain = 0
KMD1 131749Z 21005KT 36/18 A2997 RMK A01 T03600179  RH  034%=      5-min Rain = 0
KMD1 131750Z 23004KT 36/18 A2997 RMK A01 T03600179  RH  034%=      5-min Rain = 0
KMD1 131751Z 23005KT 36/18 A2997 RMK A01 T03610178  RH  034%=      5-min Rain = 0
KMD1 131752Z 26003KT 36/18 A2997 RMK A01 T03600178  RH  034%=      5-min Rain = 0
KMD1 131753Z 25004KT 36/18 A2997 RMK A01 T03590177  RH  034%=      5-min Rain = 0
KMD1 131754Z 24003KT 36/18 A2997 RMK A01 T03570177  RH  035%=      5-min Rain = 0
KMD1 131755Z 22002KT 36/18 A2997 RMK A01 T03570175  RH  034%=      5-min Rain = 0
KMD1 131756Z 21004KT 36/18 A2997 RMK A01 T03580179  RH  035%=      5-min Rain = 0
KMD1 131757Z 19006KT 36/18 A2997 RMK A01 T03620180  RH  035%=      5-min Rain = 0
KMD1 131758Z 21003KT 37/18 A2997 RMK A01 T03650180  RH  034%=      5-min Rain = 0
KMD1 131759Z 24006KT 37/18 A2997 RMK A01 T03680178  RH  033%=      5-min Rain = 0
KMD1 131800Z 23005KT 37/18 A2997 RMK A01 T03670178  RH  033%=      5-min Rain = 0
KMD1 131801Z 21003KT 37/18 A2996 RMK A01 T03660179  RH  033%=      5-min Rain = 0
KMD1 131802Z 25005KT 37/18 A2996 RMK A01 T03650180  RH  034%=      5-min Rain = 0
KMD1 131803Z 22006KT 37/18 A2996 RMK A01 T03650180  RH  034%=      5-min Rain = 0
KMD1 131804Z 21004KT 37/18 A2996 RMK A01 T03650180  RH  034%=      5-min Rain = 0
KMD1 131805Z 19007KT 37/18 A2996 RMK A01 T03650184  RH  035%=      5-min Rain = 0
KMD1 131806Z 20007KT 37/18 A2996 RMK A01 T03660182  RH  034%=      5-min Rain = 0
KMD1 131807Z 22007KT 37/18 A2996 RMK A01 T03650180  RH  034%=      5-min Rain = 0
KMD1 131808Z 23007KT 36/18 A2996 RMK A01 T03640180  RH  034%=      5-min Rain = 0
KMD1 131809Z 26005KT 36/18 A2996 RMK A01 T03640182  RH  034%=      5-min Rain = 0
KMD1 131810Z 16003KT 37/18 A2996 RMK A01 T03660179  RH  033%=      5-min Rain = 0
KMD1 131811Z 17002KT 37/18 A2996 RMK A01 T03690176  RH  032%=      5-min Rain = 0
KMD1 131812Z 19003KT 37/18 A2996 RMK A01 T03690178  RH  033%=      5-min Rain = 0
KMD1 131813Z 21005KT 37/18 A2996 RMK A01 T03690184  RH  034%=      5-min Rain = 0
KMD1 131814Z 21003KT 37/18 A2996 RMK A01 T03720180  RH  033%=      5-min Rain = 0
KMD1 131815Z 12003KT 37/19 A2996 RMK A01 T03720185  RH  033%=      5-min Rain = 0
KMD1 131816Z 19003KT 37/18 A2996 RMK A01 T03710178  RH  032%=      5-min Rain = 0
KMD1 131817Z 17000KT 37/18 A2996 RMK A01 T03700176  RH  032%=      5-min Rain = 0
KMD1 131818Z 11001KT 37/18 A2996 RMK A01 T03700176  RH  032%=      5-min Rain = 0
KMD1 131819Z 17004KT 37/18 A2996 RMK A01 T03700179  RH  033%=      5-min Rain = 0
KMD1 131820Z 19004KT 37/18 A2996 RMK A01 T03720179  RH  032%=      5-min Rain = 0
KMD1 131821Z 19006KT 37/18 A2996 RMK A01 T03730179  RH  032%=      5-min Rain = 0
KMD1 131822Z 21006KT 37/18 A2996 RMK A01 T03730180  RH  032%=      5-min Rain = 0
KMD1 131823Z 18005KT 37/18 A2996 RMK A01 T03720178  RH  032%=      5-min Rain = 0
KMD1 131824Z 13006KT 37/18 A2996 RMK A01 T03710180  RH  033%=      5-min Rain = 0
KMD1 131825Z 14010KT 38/18 A2996 RMK A01 T03750177  RH  031%=      5-min Rain = 0
KMD1 131826Z 13008KT 38/18 A2996 RMK A01 T03780176  RH  031%=      5-min Rain = 0
KMD1 131827Z 15008KT 38/18 A2996 RMK A01 T03780176  RH  031%=      5-min Rain = 0
KMD1 131828Z 16007KT 38/18 A2996 RMK A01 T03760177  RH  031%=      5-min Rain = 0
KMD1 131829Z 17006KT 38/18 A2996 RMK A01 T03760176  RH  031%=      5-min Rain = 0
KMD1 131830Z 19007KT 37/18 A2996 RMK A01 T03740178  RH  032%=      5-min Rain = 0
KMD1 131831Z 12004KT 37/18 A2996 RMK A01 T03730179  RH  032%=      5-min Rain = 0
KMD1 131832Z 08008KT 37/18 A2996 RMK A01 T03740177  RH  032%=      5-min Rain = 0
KMD1 131833Z 09007KT 38/18 A2996 RMK A01 T03770177  RH  031%=      5-min Rain = 0
KMD1 131834Z 11006KT 38/18 A2996 RMK A01 T03780176  RH  031%=      5-min Rain = 0
KMD1 131835Z 15004KT 38/17 A2996 RMK A01 T03790174  RH  030%=      5-min Rain = 0
KMD1 131836Z 15004KT 38/18 A2996 RMK A01 T03790176  RH  030%=      5-min Rain = 0
KMD1 131837Z 12003KT 38/18 A2996 RMK A01 T03780175  RH  030%=      5-min Rain = 0
KMD1 131838Z 13007KT 38/17 A2996 RMK A01 T03790171  RH  030%=      5-min Rain = 0
KMD1 131839Z 13008KT 38/17 A2996 RMK A01 T03790166  RH  029%=      5-min Rain = 0
KMD1 131840Z 15005KT 37/16 A2996 RMK A01 T03740164  RH  029%=      5-min Rain = 0
KMD1 131841Z 21001KT 37/17 A2996 RMK A01 T03710165  RH  030%=      5-min Rain = 0
KMD1 131842Z 16003KT 37/17 A2995 RMK A01 T03710169  RH  030%=      5-min Rain = 0
KMD1 131843Z 16004KT 37/17 A2995 RMK A01 T03740170  RH  030%=      5-min Rain = 0
KMD1 131844Z 16003KT 37/17 A2995 RMK A01 T03740172  RH  031%=      5-min Rain = 0
KMD1 131845Z 16003KT 37/17 A2995 RMK A01 T03740172  RH  031%=      5-min Rain = 0
KMD1 131846Z 16004KT 38/17 A2995 RMK A01 T03750173  RH  031%=      5-min Rain = 0
KMD1 131847Z 20002KT 38/17 A2995 RMK A01 T03750169  RH  030%=      5-min Rain = 0
KMD1 131848Z 21002KT 38/17 A2995 RMK A01 T03750173  RH  031%=      5-min Rain = 0
KMD1 131849Z 15007KT 38/17 A2995 RMK A01 T03750172  RH  030%=      5-min Rain = 0
KMD1 131850Z 15004KT 38/17 A2995 RMK A01 T03750169  RH  030%=      5-min Rain = 0
KMD1 131851Z 16003KT 37/17 A2995 RMK A01 T03740167  RH  030%=      5-min Rain = 0
KMD1 131852Z 15002KT 37/17 A2995 RMK A01 T03730169  RH  030%=      5-min Rain = 0
KMD1 131853Z 16002KT 37/17 A2995 RMK A01 T03740170  RH  030%=      5-min Rain = 0
KMD1 131854Z 21002KT 37/17 A2995 RMK A01 T03740171  RH  030%=      5-min Rain = 0
KMD1 131855Z 09003KT 38/17 A2995 RMK A01 T03760170  RH  030%=      5-min Rain = 0
KMD1 131856Z 07004KT 38/17 A2995 RMK A01 T03760171  RH  030%=      5-min Rain = 0
KMD1 131857Z 08002KT 38/17 A2995 RMK A01 T03750169  RH  030%=      5-min Rain = 0
KMD1 131858Z 16006KT 37/17 A2995 RMK A01 T03730171  RH  030%=      5-min Rain = 0
KMD1 131859Z 17008KT 38/18 A2995 RMK A01 T03780175  RH  031%=      5-min Rain = 0
KMD1 131900Z 16005KT 38/17 A2995 RMK A01 T03800170  RH  029%=      5-min Rain = 0
KMD1 131901Z 16003KT 38/17 A2995 RMK A01 T03770171  RH  030%=      5-min Rain = 0
KMD1 131902Z 15001KT 38/17 A2995 RMK A01 T03770167  RH  029%=      5-min Rain = 0
KMD1 131903Z 12003KT 38/17 A2995 RMK A01 T03770167  RH  029%=      5-min Rain = 0
KMD1 131904Z 14004KT 38/17 A2995 RMK A01 T03780169  RH  029%=      5-min Rain = 0
KMD1 131905Z 12006KT 38/17 A2995 RMK A01 T03790170  RH  029%=      5-min Rain = 0
KMD1 131906Z 11006KT 38/17 A2995 RMK A01 T03800171  RH  029%=      5-min Rain = 0
KMD1 131907Z 10006KT 38/17 A2995 RMK A01 T03790171  RH  030%=      5-min Rain = 0
KMD1 131908Z 09006KT 38/17 A2995 RMK A01 T03800173  RH  030%=      5-min Rain = 0
KMD1 131909Z 09004KT 38/17 A2995 RMK A01 T03810170  RH  029%=      5-min Rain = 0
KMD1 131910Z 06003KT 38/17 A2995 RMK A01 T03810173  RH  030%=      5-min Rain = 0
KMD1 131911Z 07005KT 38/17 A2995 RMK A01 T03820173  RH  030%=      5-min Rain = 0
KMD1 131912Z 13005KT 38/17 A2995 RMK A01 T03840172  RH  029%=      5-min Rain = 0
KMD1 131913Z 09006KT 39/17 A2995 RMK A01 T03870173  RH  029%=      5-min Rain = 0
KMD1 131914Z 10007KT 39/17 A2995 RMK A01 T03920171  RH  028%=      5-min Rain = 0
KMD1 131915Z 12006KT 39/17 A2995 RMK A01 T03920167  RH  027%=      5-min Rain = 0
KMD1 131916Z 10007KT 39/17 A2995 RMK A01 T03900168  RH  027%=      5-min Rain = 0
KMD1 131917Z 07007KT 39/17 A2995 RMK A01 T03900167  RH  027%=      5-min Rain = 0
KMD1 131918Z 07007KT 39/17 A2995 RMK A01 T03880166  RH  027%=      5-min Rain = 0
KMD1 131919Z 06005KT 39/17 A2995 RMK A01 T03870168  RH  028%=      5-min Rain = 0
KMD1 131920Z 07007KT 39/17 A2995 RMK A01 T03870170  RH  028%=      5-min Rain = 0
KMD1 131921Z 07006KT 39/17 A2995 RMK A01 T03860166  RH  028%=      5-min Rain = 0
KMD1 131922Z 09005KT 38/17 A2995 RMK A01 T03840167  RH  028%=      5-min Rain = 0
KMD1 131923Z 08007KT 38/17 A2995 RMK A01 T03810166  RH  028%=      5-min Rain = 0
KMD1 131924Z 09004KT 38/17 A2995 RMK A01 T03800166  RH  028%=      5-min Rain = 0
KMD1 131925Z 13003KT 38/17 A2995 RMK A01 T03790166  RH  029%=      5-min Rain = 0
KMD1 131926Z 10006KT 38/17 A2995 RMK A01 T03810168  RH  029%=      5-min Rain = 0
KMD1 131927Z 06004KT 38/17 A2995 RMK A01 T03830166  RH  028%=      5-min Rain = 0
KMD1 131928Z 05005KT 38/17 A2995 RMK A01 T03810167  RH  029%=      5-min Rain = 0
KMD1 131929Z 04006KT 38/17 A2995 RMK A01 T03810167  RH  029%=      5-min Rain = 0
KMD1 131930Z 07004KT 38/17 A2995 RMK A01 T03810165  RH  028%=      5-min Rain = 0
KMD1 131931Z 14006KT 38/16 A2995 RMK A01 T03810164  RH  028%=      5-min Rain = 0
KMD1 131932Z 16005KT 38/16 A2995 RMK A01 T03820164  RH  028%=      5-min Rain = 0
KMD1 131933Z 17009KT 38/17 A2994 RMK A01 T03830165  RH  028%=      5-min Rain = 0
KMD1 131934Z 17010KT 38/16 A2994 RMK A01 T03840164  RH  027%=      5-min Rain = 0
KMD1 131935Z 18006KT 38/16 A2994 RMK A01 T03830155  RH  026%=      5-min Rain = 0
KMD1 131936Z 17005KT 38/16 A2994 RMK A01 T03800158  RH  027%=      5-min Rain = 0
KMD1 131937Z 18003KT 38/16 A2994 RMK A01 T03790160  RH  028%=      5-min Rain = 0
KMD1 131938Z 15005KT 38/16 A2994 RMK A01 T03800162  RH  028%=      5-min Rain = 0
KMD1 131939Z 15004KT 38/16 A2994 RMK A01 T03810158  RH  027%=      5-min Rain = 0
KMD1 131940Z 08005G10KT 38/16 A2994 RMK A01 T03820161  RH  027%=      5-min Rain = 0
KMD1 131941Z 09009KT 38/17 A2994 RMK A01 T03830170  RH  029%=      5-min Rain = 0
KMD1 131942Z 08004KT 38/17 A2994 RMK A01 T03830169  RH  029%=      5-min Rain = 0
KMD1 131943Z 08005KT 38/17 A2994 RMK A01 T03840174  RH  029%=      5-min Rain = 0
KMD1 131944Z 08009KT 39/17 A2994 RMK A01 T03870172  RH  028%=      5-min Rain = 0
KMD1 131945Z 07009KT 39/17 A2994 RMK A01 T03870172  RH  029%=      5-min Rain = 0
KMD1 131946Z 09004KT 39/17 A2994 RMK A01 T03860173  RH  029%=      5-min Rain = 0
KMD1 131947Z 10008KT 39/17 A2994 RMK A01 T03870173  RH  029%=      5-min Rain = 0
KMD1 131948Z 09007KT 39/17 A2994 RMK A01 T03880170  RH  028%=      5-min Rain = 0
KMD1 131949Z 08004KT 38/17 A2994 RMK A01 T03830167  RH  028%=      5-min Rain = 0
KMD1 131950Z 06003KT 38/17 A2994 RMK A01 T03810167  RH  029%=      5-min Rain = 0
KMD1 131951Z 06006KT 38/17 A2994 RMK A01 T03800170  RH  029%=      5-min Rain = 0
KMD1 131952Z 07007KT 38/17 A2994 RMK A01 T03810169  RH  029%=      5-min Rain = 0
KMD1 131953Z 08007KT 38/17 A2994 RMK A01 T03830169  RH  029%=      5-min Rain = 0
KMD1 131954Z 06006KT 39/17 A2994 RMK A01 T03850170  RH  028%=      5-min Rain = 0
KMD1 131955Z 06006KT 39/17 A2994 RMK A01 T03850168  RH  028%=      5-min Rain = 0
KMD1 131956Z 05008KT 38/17 A2994 RMK A01 T03830170  RH  029%=      5-min Rain = 0
KMD1 131957Z 03006KT 38/17 A2994 RMK A01 T03840167  RH  028%=      5-min Rain = 0
KMD1 131958Z 04005KT 39/17 A2994 RMK A01 T03850165  RH  028%=      5-min Rain = 0
KMD1 131959Z 04006KT 38/17 A2993 RMK A01 T03840167  RH  028%=      5-min Rain = 0
KMD1 132000Z 03006KT 38/17 A2993 RMK A01 T03830167  RH  028%=      5-min Rain = 0
KMD1 132001Z 06006KT 38/17 A2994 RMK A01 T03820167  RH  028%=      5-min Rain = 0
KMD1 132002Z 08005KT 38/17 A2994 RMK A01 T03820166  RH  028%=      5-min Rain = 0
KMD1 132003Z 10006KT 38/16 A2994 RMK A01 T03820163  RH  028%=      5-min Rain = 0
KMD1 132004Z 08004KT 38/16 A2994 RMK A01 T03830157  RH  026%=      5-min Rain = 0
KMD1 132005Z 10005KT 38/16 A2994 RMK A01 T03830157  RH  027%=      5-min Rain = 0
KMD1 132006Z 11011G16KT 38/16 A2993 RMK A01 T03830160  RH  027%=      5-min Rain = 0
KMD1 132007Z 09009G15KT 39/16 A2994 RMK A01 T03870164  RH  027%=      5-min Rain = 0
KMD1 132008Z 09007KT 39/16 A2993 RMK A01 T03890164  RH  027%=      5-min Rain = 0
KMD1 132009Z 11009KT 39/16 A2993 RMK A01 T03900161  RH  026%=      5-min Rain = 0
KMD1 132010Z 10004KT 39/16 A2993 RMK A01 T03870159  RH  026%=      5-min Rain = 0
KMD1 132011Z 09007KT 39/16 A2993 RMK A01 T03870162  RH  027%=      5-min Rain = 0
KMD1 132012Z 12006KT 39/16 A2993 RMK A01 T03870161  RH  027%=      5-min Rain = 0
KMD1 132013Z 12006KT 39/16 A2993 RMK A01 T03870162  RH  027%=      5-min Rain = 0
KMD1 132014Z 14002KT 39/16 A2993 RMK A01 T03860162  RH  027%=      5-min Rain = 0
KMD1 132015Z 13005G11KT 39/17 A2993 RMK A01 T03870167  RH  028%=      5-min Rain = 0
KMD1 132016Z 09008KT 39/17 A2993 RMK A01 T03930167  RH  027%=      5-min Rain = 0
KMD1 132017Z 10007KT 40/16 A2993 RMK A01 T03950162  RH  026%=      5-min Rain = 0
KMD1 132018Z 09009KT 39/16 A2993 RMK A01 T03900163  RH  027%=      5-min Rain = 0
KMD1 132019Z 07009KT 39/17 A2993 RMK A01 T03890165  RH  027%=      5-min Rain = 0
KMD1 132020Z 08007KT 39/17 A2993 RMK A01 T03900166  RH  027%=      5-min Rain = 0
KMD1 132021Z 12008KT 39/16 A2993 RMK A01 T03920160  RH  026%=      5-min Rain = 0
KMD1 132022Z 08007KT 39/16 A2993 RMK A01 T03920160  RH  026%=      5-min Rain = 0
KMD1 132023Z 06007KT 39/16 A2993 RMK A01 T03900160  RH  026%=      5-min Rain = 0
KMD1 132024Z 06006KT 39/16 A2993 RMK A01 T03880157  RH  026%=      5-min Rain = 0
KMD1 132025Z 07005KT 39/16 A2993 RMK A01 T03870160  RH  026%=      5-min Rain = 0
KMD1 132026Z 07004KT 39/16 A2993 RMK A01 T03880159  RH  026%=      5-min Rain = 0
KMD1 132027Z 07004KT 39/16 A2992 RMK A01 T03880160  RH  026%=      5-min Rain = 0
KMD1 132028Z 08006KT 39/16 A2992 RMK A01 T03890161  RH  026%=      5-min Rain = 0
KMD1 132029Z 10010KT 39/16 A2992 RMK A01 T03890162  RH  026%=      5-min Rain = 0
KMD1 132030Z 08010KT 39/16 A2992 RMK A01 T03910163  RH  026%=      5-min Rain = 0
KMD1 132031Z 08009KT 39/16 A2992 RMK A01 T03890164  RH  027%=      5-min Rain = 0
KMD1 132032Z 07009KT 39/17 A2992 RMK A01 T03870165  RH  027%=      5-min Rain = 0
KMD1 132033Z 09010KT 39/16 A2992 RMK A01 T03870163  RH  027%=      5-min Rain = 0
KMD1 132034Z 09009KT 39/16 A2992 RMK A01 T03870162  RH  027%=      5-min Rain = 0
KMD1 132035Z 08007KT 39/16 A2992 RMK A01 T03880163  RH  027%=      5-min Rain = 0
KMD1 132036Z 10004KT 39/16 A2992 RMK A01 T03860161  RH  027%=      5-min Rain = 0
KMD1 132037Z 06005KT 39/16 A2992 RMK A01 T03850162  RH  027%=      5-min Rain = 0
KMD1 132038Z 03006KT 39/17 A2992 RMK A01 T03860165  RH  027%=      5-min Rain = 0
KMD1 132039Z 04008KT 39/16 A2992 RMK A01 T03890164  RH  027%=      5-min Rain = 0
KMD1 132040Z 04003KT 39/16 A2992 RMK A01 T03900163  RH  026%=      5-min Rain = 0
KMD1 132041Z 02004KT 39/16 A2992 RMK A01 T03900164  RH  027%=      5-min Rain = 0
KMD1 132042Z 04005KT 39/16 A2992 RMK A01 T03900160  RH  026%=      5-min Rain = 0
KMD1 132043Z 04003KT 39/16 A2992 RMK A01 T03870161  RH  027%=      5-min Rain = 0
KMD1 132044Z 08008KT 39/17 A2992 RMK A01 T03880165  RH  027%=      5-min Rain = 0
KMD1 132045Z 12010KT 39/16 A2992 RMK A01 T03920158  RH  025%=      5-min Rain = 0
KMD1 132046Z 12009KT 39/16 A2992 RMK A01 T03930159  RH  025%=      5-min Rain = 0
KMD1 132047Z 09009KT 40/16 A2992 RMK A01 T03950161  RH  025%=      5-min Rain = 0
KMD1 132048Z 09010KT 40/16 A2992 RMK A01 T03960161  RH  025%=      5-min Rain = 0
KMD1 132049Z 08010KT 39/16 A2992 RMK A01 T03940159  RH  025%=      5-min Rain = 0
KMD1 132050Z 08009KT 39/16 A2992 RMK A01 T03910158  RH  025%=      5-min Rain = 0
KMD1 132051Z 09008KT 39/16 A2992 RMK A01 T03890160  RH  026%=      5-min Rain = 0
KMD1 132052Z 09009KT 39/16 A2992 RMK A01 T03910161  RH  026%=      5-min Rain = 0
KMD1 132053Z 10007KT 39/16 A2992 RMK A01 T03930158  RH  025%=      5-min Rain = 0
KMD1 132054Z 07006KT 39/16 A2992 RMK A01 T03930160  RH  026%=      5-min Rain = 0
KMD1 132055Z 07007KT 39/16 A2992 RMK A01 T03930160  RH  026%=      5-min Rain = 0
KMD1 132056Z 07008KT 39/16 A2992 RMK A01 T03920159  RH  026%=      5-min Rain = 0
KMD1 132057Z 08010KT 39/16 A2992 RMK A01 T03930158  RH  025%=      5-min Rain = 0
KMD1 132058Z 07008KT 39/15 A2992 RMK A01 T03910154  RH  025%=      5-min Rain = 0
KMD1 132059Z 06007KT 39/16 A2992 RMK A01 T03890158  RH  026%=      5-min Rain = 0
KMD1 132100Z 05002KT 39/15 A2992 RMK A01 T03880153  RH  025%=      5-min Rain = 0
KMD1 132101Z 03006KT 39/16 A2991 RMK A01 T03870155  RH  026%=      5-min Rain = 0
KMD1 132102Z 03006KT 39/16 A2991 RMK A01 T03880156  RH  026%=      5-min Rain = 0
KMD1 132103Z 05004KT 39/15 A2991 RMK A01 T03880154  RH  025%=      5-min Rain = 0
KMD1 132104Z 09005KT 39/16 A2991 RMK A01 T03900155  RH  025%=      5-min Rain = 0
KMD1 132105Z 10005KT 39/15 A2991 RMK A01 T03900152  RH  025%=      5-min Rain = 0
KMD1 132106Z 08003KT 39/15 A2991 RMK A01 T03880152  RH  025%=      5-min Rain = 0
KMD1 132107Z 12004KT 39/15 A2991 RMK A01 T03880153  RH  025%=      5-min Rain = 0
KMD1 132108Z 12009KT 39/15 A2991 RMK A01 T03900152  RH  025%=      5-min Rain = 0
KMD1 132109Z 12011KT 39/15 A2991 RMK A01 T03930150  RH  024%=      5-min Rain = 0
KMD1 132110Z 12009KT 39/15 A2991 RMK A01 T03930150  RH  024%=      5-min Rain = 0
KMD1 132111Z 11007KT 39/15 A2991 RMK A01 T03920149  RH  024%=      5-min Rain = 0
KMD1 132112Z 09008KT 39/15 A2991 RMK A01 T03940154  RH  025%=      5-min Rain = 0
KMD1 132113Z 08005KT 40/15 A2991 RMK A01 T03960151  RH  024%=      5-min Rain = 0
KMD1 132114Z 08005KT 39/15 A2991 RMK A01 T03930151  RH  024%=      5-min Rain = 0
KMD1 132115Z 05008KT 39/15 A2991 RMK A01 T03910153  RH  025%=      5-min Rain = 0
KMD1 132116Z 05009KT 39/15 A2991 RMK A01 T03910151  RH  024%=      5-min Rain = 0
KMD1 132117Z 07007KT 39/15 A2991 RMK A01 T03920154  RH  025%=      5-min Rain = 0
KMD1 132118Z 11007KT 39/15 A2991 RMK A01 T03940148  RH  024%=      5-min Rain = 0
KMD1 132119Z 11008KT 39/15 A2991 RMK A01 T03920146  RH  023%=      5-min Rain = 0
KMD1 132120Z 10005KT 39/15 A2991 RMK A01 T03910146  RH  024%=      5-min Rain = 0
KMD1 132121Z 10002KT 39/14 A2991 RMK A01 T03900144  RH  023%=      5-min Rain = 0
KMD1 132122Z 08007KT 39/15 A2991 RMK A01 T03920148  RH  024%=      5-min Rain = 0
KMD1 132123Z 10007KT 39/15 A2991 RMK A01 T03940147  RH  023%=      5-min Rain = 0
KMD1 132124Z 10006KT 39/15 A2991 RMK A01 T03940147  RH  023%=      5-min Rain = 0
KMD1 132125Z 07006KT 39/15 A2991 RMK A01 T03930148  RH  024%=      5-min Rain = 0
KMD1 132126Z 06007KT 39/15 A2991 RMK A01 T03930151  RH  024%=      5-min Rain = 0
KMD1 132127Z 08006KT 39/15 A2991 RMK A01 T03940154  RH  024%=      5-min Rain = 0
KMD1 132128Z 10006KT 40/15 A2991 RMK A01 T03960151  RH  024%=      5-min Rain = 0
KMD1 132129Z 11006KT 40/15 A2991 RMK A01 T03960151  RH  024%=      5-min Rain = 0
KMD1 132130Z 11008KT 40/15 A2991 RMK A01 T03980150  RH  023%=      5-min Rain = 0
KMD1 132131Z 11006KT 40/15 A2991 RMK A01 T03980149  RH  023%=      5-min Rain = 0
KMD1 132132Z 11010KT 40/15 A2991 RMK A01 T03970148  RH  023%=      5-min Rain = 0
KMD1 132133Z 11007KT 39/14 A2991 RMK A01 T03940144  RH  023%=      5-min Rain = 0
KMD1 132134Z 10006KT 39/15 A299 RMK A01 T03920147  RH  024%=      5-min Rain = 0
KMD1 132135Z 12004KT 39/14 A299 RMK A01 T03940144  RH  023%=      5-min Rain = 0
KMD1 132136Z 08003KT 39/15 A299 RMK A01 T03940145  RH  023%=      5-min Rain = 0
KMD1 132137Z 08006KT 39/15 A299 RMK A01 T03940148  RH  024%=      5-min Rain = 0
KMD1 132138Z 08007KT 40/15 A299 RMK A01 T03960145  RH  023%=      5-min Rain = 0
KMD1 132139Z 07005KT 40/14 A299 RMK A01 T03950144  RH  023%=      5-min Rain = 0
KMD1 132140Z 08005KT 40/15 A299 RMK A01 T03950145  RH  023%=      5-min Rain = 0
KMD1 132141Z 11005KT 39/14 A299 RMK A01 T03940143  RH  023%=      5-min Rain = 0
KMD1 132142Z 10004KT 39/15 A299 RMK A01 T03930145  RH  023%=      5-min Rain = 0
KMD1 132143Z 10003KT 39/15 A299 RMK A01 T03910145  RH  024%=      5-min Rain = 0
KMD1 132144Z 08001KT 39/15 A299 RMK A01 T03910147  RH  024%=      5-min Rain = 0
KMD1 132145Z 06001KT 39/15 A299 RMK A01 T03920147  RH  024%=      5-min Rain = 0
KMD1 132146Z 05001KT 39/15 A299 RMK A01 T03940147  RH  023%=      5-min Rain = 0
KMD1 132147Z 06003KT 40/15 A299 RMK A01 T03980153  RH  024%=      5-min Rain = 0
KMD1 132148Z 09005KT 40/15 A299 RMK A01 T04000150  RH  023%=      5-min Rain = 0
KMD1 132149Z 06004KT 40/15 A299 RMK A01 T04000151  RH  023%=      5-min Rain = 0
KMD1 132150Z 07008KT 40/15 A299 RMK A01 T03980154  RH  024%=      5-min Rain = 0
KMD1 132151Z 08008KT 40/16 A299 RMK A01 T03970157  RH  025%=      5-min Rain = 0
KMD1 132152Z 06009KT 40/16 A299 RMK A01 T03960161  RH  025%=      5-min Rain = 0
KMD1 132153Z 06008KT 40/16 A299 RMK A01 T03970159  RH  025%=      5-min Rain = 0
KMD1 132154Z 08008KT 40/16 A299 RMK A01 T03970159  RH  025%=      5-min Rain = 0
KMD1 132155Z 08009KT 40/16 A299 RMK A01 T03970160  RH  025%=      5-min Rain = 0
KMD1 132156Z 07007KT 40/16 A299 RMK A01 T03970156  RH  024%=      5-min Rain = 0
KMD1 132157Z 07006KT 40/16 A299 RMK A01 T03950157  RH  025%=      5-min Rain = 0
KMD1 132158Z 09008KT 39/16 A299 RMK A01 T03940158  RH  025%=      5-min Rain = 0
KMD1 132159Z 08008KT 39/15 A299 RMK A01 T03940154  RH  024%=      5-min Rain = 0
KMD1 132200Z 11009KT 39/16 A299 RMK A01 T03930158  RH  025%=      5-min Rain = 0
KMD1 132201Z 12008KT 40/16 A299 RMK A01 T03950157  RH  025%=      5-min Rain = 0
KMD1 132202Z 13007KT 40/15 A299 RMK A01 T03970154  RH  024%=      5-min Rain = 0
KMD1 132203Z 10006KT 40/16 A299 RMK A01 T03970156  RH  024%=      5-min Rain = 0
KMD1 132204Z 11006KT 40/16 A2989 RMK A01 T03980157  RH  024%=      5-min Rain = 0
KMD1 132205Z 13006KT 40/16 A2989 RMK A01 T03980155  RH  024%=      5-min Rain = 0
KMD1 132206Z 14008KT 40/16 A2989 RMK A01 T03970156  RH  024%=      5-min Rain = 0
KMD1 132207Z 12009KT 40/15 A2989 RMK A01 T03960154  RH  024%=      5-min Rain = 0
KMD1 132208Z 12007KT 40/15 A2989 RMK A01 T03960152  RH  024%=      5-min Rain = 0
KMD1 132209Z 13007KT 39/15 A2989 RMK A01 T03940153  RH  024%=      5-min Rain = 0
KMD1 132210Z 11006KT 39/15 A2989 RMK A01 T03940154  RH  024%=      5-min Rain = 0
KMD1 132211Z 11005KT 39/15 A2989 RMK A01 T03940153  RH  024%=      5-min Rain = 0
KMD1 132212Z 09007KT 40/16 A2989 RMK A01 T03950156  RH  025%=      5-min Rain = 0
KMD1 132213Z 09004KT 40/15 A2989 RMK A01 T03970153  RH  024%=      5-min Rain = 0
KMD1 132214Z 10004KT 40/15 A2989 RMK A01 T03950153  RH  024%=      5-min Rain = 0
KMD1 132215Z 10008KT 39/15 A2989 RMK A01 T03940154  RH  024%=      5-min Rain = 0
KMD1 132216Z 08009KT 39/15 A2989 RMK A01 T03940153  RH  024%=      5-min Rain = 0
KMD1 132217Z 10008KT 39/15 A2989 RMK A01 T03940154  RH  024%=      5-min Rain = 0
KMD1 132218Z 14005KT 39/15 A2989 RMK A01 T03940153  RH  024%=      5-min Rain = 0
KMD1 132219Z 14009KT 40/15 A2989 RMK A01 T03950154  RH  024%=      5-min Rain = 0
KMD1 132220Z 13008KT 40/15 A2989 RMK A01 T03950150  RH  024%=      5-min Rain = 0
KMD1 132221Z 13008KT 40/15 A2989 RMK A01 T03960153  RH  024%=      5-min Rain = 0
KMD1 132222Z 11010KT 40/15 A2989 RMK A01 T03990154  RH  024%=      5-min Rain = 0
KMD1 132223Z 09011KT 40/15 A2989 RMK A01 T03990154  RH  024%=      5-min Rain = 0
KMD1 132224Z 09008KT 40/15 A2989 RMK A01 T03970154  RH  024%=      5-min Rain = 0
KMD1 132225Z 09008KT 40/15 A2989 RMK A01 T03950151  RH  024%=      5-min Rain = 0
KMD1 132226Z 08008KT 39/16 A2989 RMK A01 T03920155  RH  025%=      5-min Rain = 0
KMD1 132227Z 10009KT 39/15 A2989 RMK A01 T03940151  RH  024%=      5-min Rain = 0
KMD1 132228Z 11012KT 40/15 A2989 RMK A01 T03960150  RH  024%=      5-min Rain = 0
KMD1 132229Z 11011KT 39/15 A2989 RMK A01 T03940148  RH  024%=      5-min Rain = 0
KMD1 132230Z 12011KT 39/15 A2989 RMK A01 T03930150  RH  024%=      5-min Rain = 0
KMD1 132231Z 10008KT 39/15 A2989 RMK A01 T03940148  RH  024%=      5-min Rain = 0
KMD1 132232Z 10008KT 39/15 A2989 RMK A01 T03940151  RH  024%=      5-min Rain = 0
KMD1 132233Z 10006KT 39/15 A2989 RMK A01 T03940152  RH  024%=      5-min Rain = 0
KMD1 132234Z 11006KT 40/15 A2989 RMK A01 T03950149  RH  023%=      5-min Rain = 0
KMD1 132235Z 14010KT 39/15 A2989 RMK A01 T03940148  RH  024%=      5-min Rain = 0
KMD1 132236Z 15009KT 39/15 A2989 RMK A01 T03930147  RH  024%=      5-min Rain = 0
KMD1 132237Z 13007KT 39/15 A2989 RMK A01 T03920148  RH  024%=      5-min Rain = 0
KMD1 132238Z 12006KT 39/15 A2989 RMK A01 T03920146  RH  023%=      5-min Rain = 0
KMD1 132239Z 11004KT 39/15 A2989 RMK A01 T03930146  RH  023%=      5-min Rain = 0
KMD1 132240Z 09005KT 39/15 A2989 RMK A01 T03940149  RH  024%=      5-min Rain = 0
KMD1 132241Z 09010KT 40/15 A2989 RMK A01 T03950148  RH  023%=      5-min Rain = 0
KMD1 132242Z 09008KT 40/15 A2989 RMK A01 T03960146  RH  023%=      5-min Rain = 0
KMD1 132243Z 09008KT 39/15 A2989 RMK A01 T03940146  RH  023%=      5-min Rain = 0
KMD1 132244Z 08008KT 39/15 A2989 RMK A01 T03940147  RH  023%=      5-min Rain = 0
KMD1 132245Z 08007KT 39/15 A2989 RMK A01 T03940146  RH  023%=      5-min Rain = 0
KMD1 132246Z 08006KT 39/14 A2989 RMK A01 T03930144  RH  023%=      5-min Rain = 0
KMD1 132247Z 08008KT 39/15 A2989 RMK A01 T03910146  RH  024%=      5-min Rain = 0
KMD1 132248Z 09008KT 39/15 A2989 RMK A01 T03930149  RH  024%=      5-min Rain = 0
KMD1 132249Z 08010KT 39/15 A2989 RMK A01 T03940148  RH  023%=      5-min Rain = 0
KMD1 132250Z 08010KT 39/15 A2989 RMK A01 T03940146  RH  023%=      5-min Rain = 0
KMD1 132251Z 09009KT 39/15 A2989 RMK A01 T03920146  RH  023%=      5-min Rain = 0
KMD1 132252Z 09009KT 39/15 A2989 RMK A01 T03920146  RH  023%=      5-min Rain = 0
KMD1 132253Z 10007KT 39/14 A2989 RMK A01 T03920144  RH  023%=      5-min Rain = 0
KMD1 132254Z 07007KT 39/15 A2989 RMK A01 T03920149  RH  024%=      5-min Rain = 0
KMD1 132255Z 05007KT 39/15 A2989 RMK A01 T03930146  RH  023%=      5-min Rain = 0
KMD1 132256Z 08006KT 39/15 A2989 RMK A01 T03940147  RH  023%=      5-min Rain = 0
KMD1 132257Z 10010KT 40/15 A2989 RMK A01 T03950147  RH  023%=      5-min Rain = 0
KMD1 132258Z 11008KT 40/15 A2989 RMK A01 T03950146  RH  023%=      5-min Rain = 0
KMD1 132259Z 12007KT 40/15 A2989 RMK A01 T03980148  RH  023%=      5-min Rain = 0
KMD1 132300Z 10010KT 40/15 A2989 RMK A01 T03990147  RH  023%=      5-min Rain = 0
KMD1 132301Z 10009KT 40/15 A2989 RMK A01 T03960147  RH  023%=      5-min Rain = 0
KMD1 132302Z 13008KT 40/14 A2989 RMK A01 T03950144  RH  023%=      5-min Rain = 0
KMD1 132303Z 12008KT 40/14 A2989 RMK A01 T03950143  RH  023%=      5-min Rain = 0
KMD1 132304Z 12006KT 39/14 A2989 RMK A01 T03940144  RH  023%=      5-min Rain = 0
KMD1 132305Z 11005KT 40/14 A2989 RMK A01 T03950144  RH  023%=      5-min Rain = 0
KMD1 132306Z 09003KT 40/14 A2989 RMK A01 T03960142  RH  023%=      5-min Rain = 0
KMD1 132307Z 13003KT 39/14 A2989 RMK A01 T03940141  RH  022%=      5-min Rain = 0
KMD1 132308Z 14007KT 39/14 A2989 RMK A01 T03940144  RH  023%=      5-min Rain = 0
KMD1 132309Z 11006KT 40/14 A2989 RMK A01 T03950143  RH  023%=      5-min Rain = 0
KMD1 132310Z 12006KT 39/14 A2989 RMK A01 T03940144  RH  023%=      5-min Rain = 0
KMD1 132311Z 13005KT 39/14 A2989 RMK A01 T03940143  RH  023%=      5-min Rain = 0
KMD1 132312Z 16007KT 39/15 A2989 RMK A01 T03940147  RH  023%=      5-min Rain = 0
KMD1 132313Z 12006KT 39/15 A2989 RMK A01 T03930146  RH  023%=      5-min Rain = 0
KMD1 132314Z 11007KT 39/15 A2989 RMK A01 T03930146  RH  023%=      5-min Rain = 0
KMD1 132315Z 10007KT 40/15 A2989 RMK A01 T03960147  RH  023%=      5-min Rain = 0
KMD1 132316Z 10011KT 40/15 A2989 RMK A01 T03970147  RH  023%=      5-min Rain = 0
KMD1 132317Z 10008KT 40/15 A2989 RMK A01 T03960145  RH  023%=      5-min Rain = 0
KMD1 132318Z 11008KT 40/15 A299 RMK A01 T03950148  RH  023%=      5-min Rain = 0
KMD1 132319Z 11009KT 40/15 A299 RMK A01 T03950150  RH  024%=      5-min Rain = 0
KMD1 132320Z 11010KT 40/15 A299 RMK A01 T03960145  RH  023%=      5-min Rain = 0
KMD1 132321Z 12008KT 40/14 A299 RMK A01 T03950144  RH  023%=      5-min Rain = 0
KMD1 132322Z 12007KT 39/14 A299 RMK A01 T03930143  RH  023%=      5-min Rain = 0
KMD1 132323Z 11006KT 39/14 A299 RMK A01 T03930143  RH  023%=      5-min Rain = 0
KMD1 132324Z 07004KT 39/15 A299 RMK A01 T03930147  RH  024%=      5-min Rain = 0
KMD1 132325Z 07007KT 39/15 A299 RMK A01 T03930147  RH  024%=      5-min Rain = 0
KMD1 132326Z 07011G16KT 39/15 A2989 RMK A01 T03930149  RH  024%=      5-min Rain = 0
KMD1 132327Z 10011KT 39/15 A299 RMK A01 T03940148  RH  024%=      5-min Rain = 0
KMD1 132328Z 10009KT 39/15 A299 RMK A01 T03920148  RH  024%=      5-min Rain = 0
KMD1 132329Z 10008KT 39/15 A299 RMK A01 T03910153  RH  025%=      5-min Rain = 0
KMD1 132330Z 11011KT 39/15 A299 RMK A01 T03930149  RH  024%=      5-min Rain = 0
KMD1 132331Z 12010KT 39/15 A299 RMK A01 T03920147  RH  024%=      5-min Rain = 0
KMD1 132332Z 13010KT 39/15 A299 RMK A01 T03910149  RH  024%=      5-min Rain = 0
KMD1 132333Z 13011KT 39/15 A299 RMK A01 T03910148  RH  024%=      5-min Rain = 0
KMD1 132334Z 13011KT 39/15 A299 RMK A01 T03910146  RH  024%=      5-min Rain = 0
KMD1 132335Z 13010KT 39/15 A299 RMK A01 T03900147  RH  024%=      5-min Rain = 0
KMD1 132336Z 12008KT 39/15 A299 RMK A01 T03900146  RH  024%=      5-min Rain = 0
KMD1 132337Z 13007KT 39/15 A299 RMK A01 T03890148  RH  024%=      5-min Rain = 0
KMD1 132338Z 11008KT 39/15 A299 RMK A01 T03900150  RH  024%=      5-min Rain = 0
KMD1 132339Z 09009KT 39/15 A299 RMK A01 T03900149  RH  024%=      5-min Rain = 0
KMD1 132340Z 10008KT 39/15 A299 RMK A01 T03880148  RH  024%=      5-min Rain = 0
KMD1 132341Z 13007KT 39/15 A299 RMK A01 T03880151  RH  025%=      5-min Rain = 0
KMD1 132342Z 14008KT 39/15 A299 RMK A01 T03890148  RH  024%=      5-min Rain = 0
KMD1 132343Z 13007KT 39/15 A299 RMK A01 T03890146  RH  024%=      5-min Rain = 0
KMD1 132344Z 13006KT 39/15 A299 RMK A01 T03890149  RH  024%=      5-min Rain = 0
KMD1 132345Z 11008KT 39/15 A299 RMK A01 T03900150  RH  024%=      5-min Rain = 0
KMD1 132346Z 12007KT 39/15 A299 RMK A01 T03900150  RH  024%=      5-min Rain = 0
KMD1 132347Z 11008KT 39/15 A299 RMK A01 T03900150  RH  024%=      5-min Rain = 0
KMD1 132348Z 10007KT 39/15 A299 RMK A01 T03890149  RH  024%=      5-min Rain = 0
KMD1 132349Z 12008KT 39/15 A299 RMK A01 T03880149  RH  024%=      5-min Rain = 0
KMD1 132350Z 12006KT 39/15 A299 RMK A01 T03860149  RH  025%=      5-min Rain = 0
KMD1 132351Z 11007KT 39/15 A299 RMK A01 T03860151  RH  025%=      5-min Rain = 0
KMD1 132352Z 11007KT 39/15 A299 RMK A01 T03850152  RH  025%=      5-min Rain = 0
KMD1 132353Z 13008KT 38/15 A299 RMK A01 T03840151  RH  025%=      5-min Rain = 0
KMD1 132354Z 12008KT 38/15 A299 RMK A01 T03840150  RH  025%=      5-min Rain = 0
KMD1 132355Z 12008KT 38/15 A299 RMK A01 T03830152  RH  026%=      5-min Rain = 0
KMD1 132356Z 12009KT 38/15 A299 RMK A01 T03830150  RH  025%=      5-min Rain = 0
KMD1 132357Z 12009KT 38/15 A299 RMK A01 T03820147  RH  025%=      5-min Rain = 0
KMD1 132358Z 12009KT 38/15 A299 RMK A01 T03810149  RH  025%=      5-min Rain = 0
KMD1 132359Z 12009KT 38/15 A299 RMK A01 T03800149  RH  026%=      5-min Rain = 0
KMD1 140000Z 13010KT 38/15 A299 RMK A01 T03790148  RH  026%=      5-min Rain = 0
KMD1 140001Z 12009KT 38/15 A299 RMK A01 T03780146  RH  025%=      5-min Rain = 0
KMD1 140002Z 12008KT 38/15 A299 RMK A01 T03770147  RH  026%=      5-min Rain = 0
KMD1 140003Z 12008KT 38/15 A299 RMK A01 T03750147  RH  026%=      5-min Rain = 0
KMD1 140004Z 13008KT 37/15 A299 RMK A01 T03740147  RH  026%=      5-min Rain = 0
KMD1 140005Z 13006KT 37/15 A299 RMK A01 T03730148  RH  026%=      5-min Rain = 0
KMD1 140006Z 12007KT 37/15 A299 RMK A01 T03710148  RH  027%=      5-min Rain = 0
KMD1 140007Z 12007KT 37/15 A299 RMK A01 T03700146  RH  026%=      5-min Rain = 0
KMD1 140008Z 13007KT 37/15 A299 RMK A01 T03700146  RH  027%=      5-min Rain = 0
KMD1 140009Z 12006KT 37/15 A299 RMK A01 T03690147  RH  027%=      5-min Rain = 0
KMD1 140010Z 12007KT 37/15 A299 RMK A01 T03690147  RH  027%=      5-min Rain = 0
KMD1 140011Z 13007KT 37/15 A299 RMK A01 T03680146  RH  027%=      5-min Rain = 0
KMD1 140012Z 13007KT 37/15 A299 RMK A01 T03670147  RH  027%=      5-min Rain = 0
KMD1 140013Z 12005KT 37/15 A299 RMK A01 T03670148  RH  027%=      5-min Rain = 0
KMD1 140014Z 13006KT 37/15 A299 RMK A01 T03660148  RH  027%=      5-min Rain = 0
KMD1 140015Z 12005KT 37/15 A299 RMK A01 T03650149  RH  028%=      5-min Rain = 0
KMD1 140016Z 12005KT 36/15 A299 RMK A01 T03630149  RH  028%=      5-min Rain = 0
KMD1 140017Z 12007KT 36/15 A299 RMK A01 T03630149  RH  028%=      5-min Rain = 0
KMD1 140018Z 14007KT 36/15 A299 RMK A01 T03620147  RH  028%=      5-min Rain = 0
KMD1 140019Z 14007KT 36/15 A299 RMK A01 T03630148  RH  028%=      5-min Rain = 0
KMD1 140020Z 14006KT 36/15 A299 RMK A01 T03640147  RH  028%=      5-min Rain = 0
KMD1 140021Z 14006KT 36/15 A299 RMK A01 T03640148  RH  028%=      5-min Rain = 0
KMD1 140022Z 15005KT 36/15 A299 RMK A01 T03640149  RH  028%=      5-min Rain = 0
KMD1 140023Z 14006KT 36/15 A299 RMK A01 T03630148  RH  028%=      5-min Rain = 0
KMD1 140024Z 14006KT 36/15 A299 RMK A01 T03630148  RH  028%=      5-min Rain = 0
KMD1 140025Z 13006KT 36/15 A299 RMK A01 T03640148  RH  028%=      5-min Rain = 0
KMD1 140026Z 13006KT 36/15 A299 RMK A01 T03640148  RH  028%=      5-min Rain = 0
KMD1 140027Z 14006KT 36/15 A299 RMK A01 T03640148  RH  028%=      5-min Rain = 0
KMD1 140028Z 13005KT 36/15 A299 RMK A01 T03640148  RH  028%=      5-min Rain = 0
KMD1 140029Z 13005KT 36/15 A299 RMK A01 T03630149  RH  028%=      5-min Rain = 0
KMD1 140030Z 13005KT 36/15 A299 RMK A01 T03620149  RH  028%=      5-min Rain = 0
KMD1 140031Z 13005KT 36/15 A299 RMK A01 T03600149  RH  028%=      5-min Rain = 0
KMD1 140032Z 14005KT 36/15 A299 RMK A01 T03600149  RH  029%=      5-min Rain = 0
KMD1 140033Z 14006KT 36/15 A299 RMK A01 T03580149  RH  029%=      5-min Rain = 0
KMD1 140034Z 14006KT 36/15 A299 RMK A01 T03580148  RH  028%=      5-min Rain = 0
KMD1 140035Z 14007KT 36/15 A299 RMK A01 T03590148  RH  028%=      5-min Rain = 0
KMD1 140036Z 14008KT 36/15 A299 RMK A01 T03600146  RH  028%=      5-min Rain = 0
KMD1 140037Z 14007KT 36/15 A2991 RMK A01 T03610147  RH  028%=      5-min Rain = 0
KMD1 140038Z 14007KT 36/15 A2991 RMK A01 T03610148  RH  028%=      5-min Rain = 0
KMD1 140039Z 14007KT 36/15 A2991 RMK A01 T03610147  RH  028%=      5-min Rain = 0
KMD1 140040Z 13007KT 36/15 A2991 RMK A01 T03610147  RH  028%=      5-min Rain = 0
KMD1 140041Z 13005KT 36/15 A2991 RMK A01 T03610148  RH  028%=      5-min Rain = 0
KMD1 140042Z 14006KT 36/15 A2991 RMK A01 T03600148  RH  028%=      5-min Rain = 0
KMD1 140043Z 14006KT 36/15 A2991 RMK A01 T03600148  RH  028%=      5-min Rain = 0
KMD1 140044Z 14005KT 36/15 A2991 RMK A01 T03590147  RH  028%=      5-min Rain = 0
KMD1 140045Z 14006KT 36/15 A2991 RMK A01 T03590147  RH  028%=      5-min Rain = 0
KMD1 140046Z 14006KT 36/15 A2991 RMK A01 T03590148  RH  028%=      5-min Rain = 0
KMD1 140047Z 14005KT 36/15 A2991 RMK A01 T03590148  RH  029%=      5-min Rain = 0
KMD1 140048Z 13007KT 36/15 A2991 RMK A01 T03580147  RH  028%=      5-min Rain = 0
KMD1 140049Z 14006KT 36/15 A2991 RMK A01 T03580147  RH  028%=      5-min Rain = 0
KMD1 140050Z 13005KT 36/15 A2991 RMK A01 T03580148  RH  029%=      5-min Rain = 0
KMD1 140051Z 14006KT 36/15 A2991 RMK A01 T03570148  RH  029%=      5-min Rain = 0
KMD1 140052Z 14006KT 36/15 A2991 RMK A01 T03560148  RH  029%=      5-min Rain = 0
KMD1 140053Z 13005KT 36/15 A2991 RMK A01 T03560148  RH  029%=      5-min Rain = 0
KMD1 140054Z 13005KT 36/15 A2991 RMK A01 T03550149  RH  029%=      5-min Rain = 0
KMD1 140055Z 13005KT 35/15 A2991 RMK A01 T03540150  RH  030%=      5-min Rain = 0
KMD1 140056Z 12005KT 35/15 A2991 RMK A01 T03520149  RH  030%=      5-min Rain = 0
KMD1 140057Z 12005KT 35/15 A2991 RMK A01 T03510149  RH  030%=      5-min Rain = 0
KMD1 140058Z 12005KT 35/15 A2991 RMK A01 T03500149  RH  030%=      5-min Rain = 0
KMD1 140059Z 12005KT 35/15 A2991 RMK A01 T03500150  RH  030%=      5-min Rain = 0
KMD1 140100Z 12005KT 35/15 A2991 RMK A01 T03490150  RH  030%=      5-min Rain = 0
KMD1 140101Z 13005KT 35/15 A2991 RMK A01 T03490149  RH  030%=      5-min Rain = 0
KMD1 140102Z 13006KT 35/15 A2991 RMK A01 T03480149  RH  030%=      5-min Rain = 0
KMD1 140103Z 13006KT 35/15 A2991 RMK A01 T03480149  RH  030%=      5-min Rain = 0
KMD1 140104Z 12006KT 35/15 A2991 RMK A01 T03480149  RH  031%=      5-min Rain = 0
KMD1 140105Z 13007KT 35/15 A2991 RMK A01 T03480150  RH  031%=      5-min Rain = 0
KMD1 140106Z 13006KT 35/15 A2991 RMK A01 T03480150  RH  031%=      5-min Rain = 0
KMD1 140107Z 13006KT 35/15 A2991 RMK A01 T03480151  RH  031%=      5-min Rain = 0
KMD1 140108Z 13007KT 35/15 A2991 RMK A01 T03480151  RH  031%=      5-min Rain = 0
KMD1 140109Z 13006KT 35/15 A2991 RMK A01 T03480151  RH  031%=      5-min Rain = 0
KMD1 140110Z 13006KT 35/15 A2991 RMK A01 T03470151  RH  031%=      5-min Rain = 0
KMD1 140111Z 13007KT 35/15 A2991 RMK A01 T03460151  RH  031%=      5-min Rain = 0
KMD1 140112Z 13007KT 35/15 A2991 RMK A01 T03470150  RH  031%=      5-min Rain = 0
KMD1 140113Z 13007KT 35/15 A2991 RMK A01 T03470150  RH  031%=      5-min Rain = 0
KMD1 140114Z 13006KT 35/15 A2991 RMK A01 T03470151  RH  031%=      5-min Rain = 0
KMD1 140115Z 13007KT 35/15 A2991 RMK A01 T03470151  RH  031%=      5-min Rain = 0
KMD1 140116Z 13007KT 35/15 A2991 RMK A01 T03470151  RH  031%=      5-min Rain = 0
KMD1 140117Z 13007KT 35/15 A2991 RMK A01 T03470151  RH  031%=      5-min Rain = 0
KMD1 140118Z 13006KT 35/15 A2991 RMK A01 T03460151  RH  031%=      5-min Rain = 0
KMD1 140119Z 13006KT 35/15 A2991 RMK A01 T03460151  RH  031%=      5-min Rain = 0
KMD1 140120Z 13006KT 35/15 A2991 RMK A01 T03450151  RH  031%=      5-min Rain = 0
KMD1 140121Z 13007KT 35/15 A2991 RMK A01 T03450151  RH  031%=      5-min Rain = 0
KMD1 140122Z 13007KT 34/15 A2991 RMK A01 T03440151  RH  031%=      5-min Rain = 0
KMD1 140123Z 13007KT 34/15 A2991 RMK A01 T03440150  RH  031%=      5-min Rain = 0
KMD1 140124Z 13007KT 34/15 A2991 RMK A01 T03440151  RH  031%=      5-min Rain = 0
KMD1 140125Z 14006KT 34/15 A2991 RMK A01 T03440151  RH  031%=      5-min Rain = 0
KMD1 140126Z 13006KT 34/15 A2991 RMK A01 T03430151  RH  032%=      5-min Rain = 0
KMD1 140127Z 14006KT 34/15 A2991 RMK A01 T03430151  RH  032%=      5-min Rain = 0
KMD1 140128Z 14006KT 34/15 A2991 RMK A01 T03430151  RH  032%=      5-min Rain = 0
KMD1 140129Z 13006KT 34/15 A2991 RMK A01 T03430151  RH  032%=      5-min Rain = 0
KMD1 140130Z 14007KT 34/15 A2991 RMK A01 T03430152  RH  032%=      5-min Rain = 0
KMD1 140131Z 14006KT 34/15 A2991 RMK A01 T03420152  RH  032%=      5-min Rain = 0
KMD1 140132Z 13006KT 34/15 A2991 RMK A01 T03420152  RH  032%=      5-min Rain = 0
KMD1 140133Z 14006KT 34/15 A2991 RMK A01 T03420152  RH  032%=      5-min Rain = 0
KMD1 140134Z 13007KT 34/15 A2991 RMK A01 T03420152  RH  032%=      5-min Rain = 0
KMD1 140135Z 14008KT 34/15 A2991 RMK A01 T03420152  RH  032%=      5-min Rain = 0
KMD1 140136Z 14007KT 34/15 A2991 RMK A01 T03430152  RH  032%=      5-min Rain = 0
KMD1 140137Z 14007KT 34/15 A2991 RMK A01 T03440153  RH  032%=      5-min Rain = 0
KMD1 140138Z 14007KT 35/15 A2991 RMK A01 T03450153  RH  032%=      5-min Rain = 0
KMD1 140139Z 15006KT 35/15 A2991 RMK A01 T03450153  RH  032%=      5-min Rain = 0
KMD1 140140Z 14006KT 35/15 A2991 RMK A01 T03450154  RH  032%=      5-min Rain = 0
KMD1 140141Z 14007KT 34/15 A2991 RMK A01 T03440154  RH  032%=      5-min Rain = 0
KMD1 140142Z 15007KT 34/15 A2991 RMK A01 T03430154  RH  032%=      5-min Rain = 0
KMD1 140143Z 14006KT 34/15 A2991 RMK A01 T03430154  RH  032%=      5-min Rain = 0
KMD1 140144Z 15006KT 34/15 A2991 RMK A01 T03430154  RH  032%=      5-min Rain = 0
KMD1 140145Z 15007KT 34/16 A2991 RMK A01 T03430155  RH  032%=      5-min Rain = 0
KMD1 140146Z 14006KT 34/16 A2991 RMK A01 T03430155  RH  033%=      5-min Rain = 0
KMD1 140147Z 14007KT 34/15 A2991 RMK A01 T03420154  RH  032%=      5-min Rain = 0
KMD1 140148Z 15007KT 34/16 A2991 RMK A01 T03420155  RH  033%=      5-min Rain = 0
KMD1 140149Z 15006KT 34/16 A2991 RMK A01 T03420155  RH  033%=      5-min Rain = 0
KMD1 140150Z 15007KT 34/16 A2991 RMK A01 T03410155  RH  033%=      5-min Rain = 0
KMD1 140151Z 15007KT 34/16 A2991 RMK A01 T03400155  RH  033%=      5-min Rain = 0
KMD1 140152Z 15006KT 34/16 A2992 RMK A01 T03400155  RH  033%=      5-min Rain = 0
KMD1 140153Z 15006KT 34/16 A2992 RMK A01 T03390155  RH  033%=      5-min Rain = 0
KMD1 140154Z 15007KT 34/16 A2992 RMK A01 T03380155  RH  033%=      5-min Rain = 0
KMD1 140155Z 15007KT 34/16 A2992 RMK A01 T03380155  RH  033%=      5-min Rain = 0
KMD1 140156Z 15007KT 34/16 A2992 RMK A01 T03380156  RH  034%=      5-min Rain = 0
KMD1 140157Z 15007KT 34/16 A2992 RMK A01 T03380156  RH  034%=      5-min Rain = 0
KMD1 140158Z 15007KT 34/16 A2992 RMK A01 T03370156  RH  034%=      5-min Rain = 0
KMD1 140159Z 15006KT 34/16 A2992 RMK A01 T03370156  RH  034%=      5-min Rain = 0
KMD1 140200Z 15007KT 34/16 A2992 RMK A01 T03360156  RH  034%=      5-min Rain = 0
KMD1 140201Z 15007KT 34/16 A2992 RMK A01 T03360156  RH  034%=      5-min Rain = 0
KMD1 140202Z 14008KT 34/16 A2992 RMK A01 T03360157  RH  034%=      5-min Rain = 0
KMD1 140203Z 15007KT 34/16 A2992 RMK A01 T03360157  RH  034%=      5-min Rain = 0
KMD1 140204Z 14007KT 34/16 A2992 RMK A01 T03360157  RH  034%=      5-min Rain = 0
KMD1 140205Z 14007KT 34/16 A2992 RMK A01 T03360158  RH  034%=      5-min Rain = 0
KMD1 140206Z 14007KT 34/16 A2992 RMK A01 T03360158  RH  034%=      5-min Rain = 0
KMD1 140207Z 14007KT 34/16 A2992 RMK A01 T03360158  RH  035%=      5-min Rain = 0
KMD1 140208Z 14008KT 34/16 A2992 RMK A01 T03360158  RH  035%=      5-min Rain = 0
KMD1 140209Z 14007KT 34/16 A2992 RMK A01 T03350158  RH  035%=      5-min Rain = 0
KMD1 140210Z 14007KT 34/16 A2992 RMK A01 T03350159  RH  035%=      5-min Rain = 0
KMD1 140211Z 14007KT 34/16 A2992 RMK A01 T03350159  RH  035%=      5-min Rain = 0
KMD1 140212Z 14007KT 34/16 A2993 RMK A01 T03350159  RH  035%=      5-min Rain = 0
KMD1 140213Z 13007KT 34/16 A2993 RMK A01 T03350160  RH  035%=      5-min Rain = 0
KMD1 140214Z 14007KT 34/16 A2993 RMK A01 T03350160  RH  035%=      5-min Rain = 0
KMD1 140215Z 14008KT 33/16 A2993 RMK A01 T03340161  RH  035%=      5-min Rain = 0
KMD1 140216Z 14007KT 33/16 A2993 RMK A01 T03340161  RH  035%=      5-min Rain = 0
KMD1 140217Z 13007KT 33/16 A2993 RMK A01 T03340162  RH  036%=      5-min Rain = 0
KMD1 140218Z 14006KT 33/16 A2993 RMK A01 T03340161  RH  036%=      5-min Rain = 0
KMD1 140219Z 14007KT 33/16 A2993 RMK A01 T03330162  RH  036%=      5-min Rain = 0
KMD1 140220Z 13007KT 33/16 A2993 RMK A01 T03330162  RH  036%=      5-min Rain = 0
KMD1 140221Z 14007KT 33/16 A2993 RMK A01 T03340163  RH  036%=      5-min Rain = 0
KMD1 140222Z 14007KT 33/16 A2993 RMK A01 T03340163  RH  036%=      5-min Rain = 0
KMD1 140223Z 14008KT 33/16 A2993 RMK A01 T03340164  RH  036%=      5-min Rain = 0
KMD1 140224Z 14008KT 33/16 A2993 RMK A01 T03340164  RH  036%=      5-min Rain = 0
KMD1 140225Z 14009KT 33/17 A2993 RMK A01 T03340165  RH  036%=      5-min Rain = 0
KMD1 140226Z 15008KT 34/17 A2993 RMK A01 T03350166  RH  036%=      5-min Rain = 0
KMD1 140227Z 14008KT 34/17 A2993 RMK A01 T03350166  RH  037%=      5-min Rain = 0
KMD1 140228Z 14007KT 34/17 A2993 RMK A01 T03350167  RH  037%=      5-min Rain = 0
KMD1 140229Z 15009KT 33/17 A2993 RMK A01 T03340166  RH  037%=      5-min Rain = 0
KMD1 140230Z 15008KT 33/17 A2994 RMK A01 T03340167  RH  037%=      5-min Rain = 0
KMD1 140231Z 15009KT 33/17 A2994 RMK A01 T03340168  RH  037%=      5-min Rain = 0
KMD1 140232Z 15008KT 33/17 A2994 RMK A01 T03340168  RH  037%=      5-min Rain = 0
KMD1 140233Z 15009KT 33/17 A2994 RMK A01 T03340168  RH  037%=      5-min Rain = 0
KMD1 140234Z 15008KT 33/17 A2994 RMK A01 T03340169  RH  037%=      5-min Rain = 0
KMD1 140235Z 15008KT 33/17 A2994 RMK A01 T03340169  RH  037%=      5-min Rain = 0
KMD1 140236Z 15008KT 33/17 A2994 RMK A01 T03330169  RH  038%=      5-min Rain = 0
KMD1 140237Z 14009KT 33/17 A2994 RMK A01 T03330170  RH  038%=      5-min Rain = 0
KMD1 140238Z 14008KT 33/17 A2994 RMK A01 T03330170  RH  038%=      5-min Rain = 0
KMD1 140239Z 14009KT 33/17 A2994 RMK A01 T03330170  RH  038%=      5-min Rain = 0
KMD1 140240Z 14009KT 33/17 A2994 RMK A01 T03330170  RH  038%=      5-min Rain = 0
KMD1 140241Z 15008KT 33/17 A2994 RMK A01 T03330171  RH  038%=      5-min Rain = 0
KMD1 140242Z 14008KT 33/17 A2994 RMK A01 T03330171  RH  038%=      5-min Rain = 0
KMD1 140243Z 14009KT 33/17 A2994 RMK A01 T03320171  RH  038%=      5-min Rain = 0
KMD1 140244Z 14006KT 33/17 A2995 RMK A01 T03330171  RH  038%=      5-min Rain = 0
KMD1 140245Z 15009KT 33/17 A2995 RMK A01 T03330172  RH  038%=      5-min Rain = 0
KMD1 140246Z 14007KT 33/17 A2995 RMK A01 T03320171  RH  038%=      5-min Rain = 0
KMD1 140247Z 15008KT 33/17 A2995 RMK A01 T03320172  RH  038%=      5-min Rain = 0
KMD1 140248Z 15007KT 33/17 A2995 RMK A01 T03330172  RH  038%=      5-min Rain = 0
KMD1 140249Z 14006KT 33/17 A2995 RMK A01 T03320172  RH  039%=      5-min Rain = 0
KMD1 140250Z 14009KT 33/17 A2995 RMK A01 T03310172  RH  039%=      5-min Rain = 0
KMD1 140251Z 15008KT 33/17 A2995 RMK A01 T03310172  RH  039%=      5-min Rain = 0
KMD1 140252Z 14007KT 33/17 A2995 RMK A01 T03310172  RH  039%=      5-min Rain = 0
KMD1 140253Z 15009KT 33/17 A2995 RMK A01 T03310173  RH  039%=      5-min Rain = 0
KMD1 140254Z 15008KT 33/17 A2996 RMK A01 T03310173  RH  039%=      5-min Rain = 0
KMD1 140255Z 15007KT 33/17 A2996 RMK A01 T03320173  RH  039%=      5-min Rain = 0
KMD1 140256Z 15008KT 33/17 A2996 RMK A01 T03320173  RH  039%=      5-min Rain = 0
KMD1 140257Z 15007KT 33/17 A2996 RMK A01 T03310173  RH  039%=      5-min Rain = 0
KMD1 140258Z 15006KT 33/17 A2996 RMK A01 T03310174  RH  039%=      5-min Rain = 0
KMD1 140259Z 15009KT 33/17 A2996 RMK A01 T03300174  RH  039%=      5-min Rain = 0
KMD1 140300Z 14007KT 33/17 A2996 RMK A01 T03310174  RH  039%=      5-min Rain = 0
KMD1 140301Z 15007KT 33/17 A2996 RMK A01 T03310174  RH  039%=      5-min Rain = 0
KMD1 140302Z 14008KT 33/18 A2996 RMK A01 T03300175  RH  040%=      5-min Rain = 0
KMD1 140303Z 15007KT 33/17 A2996 RMK A01 T03300174  RH  040%=      5-min Rain = 0
KMD1 140304Z 15010KT 33/18 A2996 RMK A01 T03300175  RH  040%=      5-min Rain = 0
KMD1 140305Z 15009KT 33/18 A2996 RMK A01 T03300175  RH  040%=      5-min Rain = 0
KMD1 140306Z 15007KT 33/17 A2996 RMK A01 T03300174  RH  040%=      5-min Rain = 0
KMD1 140307Z 15008KT 33/18 A2996 RMK A01 T03300175  RH  040%=      5-min Rain = 0
KMD1 140308Z 14008KT 33/18 A2996 RMK A01 T03300175  RH  040%=      5-min Rain = 0
KMD1 140309Z 14007KT 33/18 A2996 RMK A01 T03300175  RH  040%=      5-min Rain = 0
KMD1 140310Z 15008KT 33/18 A2996 RMK A01 T03300175  RH  040%=      5-min Rain = 0
KMD1 140311Z 14007KT 33/18 A2996 RMK A01 T03290175  RH  040%=      5-min Rain = 0
KMD1 140312Z 15007KT 33/18 A2996 RMK A01 T03290176  RH  040%=      5-min Rain = 0
KMD1 140313Z 14007KT 33/18 A2996 RMK A01 T03280176  RH  040%=      5-min Rain = 0
KMD1 140314Z 15006KT 33/18 A2996 RMK A01 T03280175  RH  040%=      5-min Rain = 0
KMD1 140315Z 14006KT 33/18 A2996 RMK A01 T03280176  RH  040%=      5-min Rain = 0
KMD1 140316Z 15007KT 33/18 A2996 RMK A01 T03270176  RH  041%=      5-min Rain = 0
KMD1 140317Z 15007KT 33/18 A2996 RMK A01 T03270176  RH  041%=      5-min Rain = 0
KMD1 140318Z 15007KT 33/18 A2997 RMK A01 T03270176  RH  041%=      5-min Rain = 0
KMD1 140319Z 15008KT 33/18 A2997 RMK A01 T03270176  RH  041%=      5-min Rain = 0
KMD1 140320Z 15008KT 33/18 A2997 RMK A01 T03270176  RH  041%=      5-min Rain = 0
KMD1 140321Z 15007KT 33/18 A2997 RMK A01 T03280176  RH  041%=      5-min Rain = 0
KMD1 140322Z 15006KT 33/18 A2997 RMK A01 T03280177  RH  041%=      5-min Rain = 0
KMD1 140323Z 15006KT 33/18 A2997 RMK A01 T03280177  RH  041%=      5-min Rain = 0
KMD1 140324Z 15007KT 33/18 A2997 RMK A01 T03270177  RH  041%=      5-min Rain = 0
KMD1 140325Z 15006KT 33/18 A2997 RMK A01 T03270176  RH  041%=      5-min Rain = 0
KMD1 140326Z 15006KT 33/18 A2997 RMK A01 T03270177  RH  041%=      5-min Rain = 0
KMD1 140327Z 14007KT 33/18 A2997 RMK A01 T03280177  RH  041%=      5-min Rain = 0
KMD1 140328Z 14007KT 33/18 A2997 RMK A01 T03270177  RH  041%=      5-min Rain = 0
KMD1 140329Z 15006KT 33/18 A2998 RMK A01 T03270177  RH  041%=      5-min Rain = 0
KMD1 140330Z 15005KT 33/18 A2998 RMK A01 T03270177  RH  041%=      5-min Rain = 0
KMD1 140331Z 15007KT 33/18 A2998 RMK A01 T03260178  RH  041%=      5-min Rain = 0
KMD1 140332Z 15007KT 33/18 A2998 RMK A01 T03260177  RH  041%=      5-min Rain = 0
KMD1 140333Z 15007KT 33/18 A2998 RMK A01 T03260177  RH  041%=      5-min Rain = 0
KMD1 140334Z 15007KT 33/18 A2998 RMK A01 T03260177  RH  041%=      5-min Rain = 0
KMD1 140335Z 15006KT 33/18 A2998 RMK A01 T03260177  RH  041%=      5-min Rain = 0
KMD1 140336Z 16008KT 33/18 A2998 RMK A01 T03250178  RH  041%=      5-min Rain = 0
KMD1 140337Z 16006KT 33/18 A2998 RMK A01 T03250177  RH  041%=      5-min Rain = 0
KMD1 140338Z 15006KT 33/18 A2998 RMK A01 T03260178  RH  041%=      5-min Rain = 0
KMD1 140339Z 15008KT 33/18 A2998 RMK A01 T03250178  RH  041%=      5-min Rain = 0
KMD1 140340Z 15007KT 33/18 A2998 RMK A01 T03250178  RH  042%=      5-min Rain = 0
KMD1 140341Z 15006KT 33/18 A2998 RMK A01 T03250178  RH  042%=      5-min Rain = 0
KMD1 140342Z 15007KT 32/18 A2998 RMK A01 T03240178  RH  042%=      5-min Rain = 0
KMD1 140343Z 15008KT 32/18 A2998 RMK A01 T03240178  RH  042%=      5-min Rain = 0
KMD1 140344Z 15007KT 32/18 A2998 RMK A01 T03240177  RH  042%=      5-min Rain = 0
KMD1 140345Z 15007KT 32/18 A2998 RMK A01 T03240178  RH  042%=      5-min Rain = 0
KMD1 140346Z 15005KT 32/18 A2998 RMK A01 T03240178  RH  042%=      5-min Rain = 0
KMD1 140347Z 14007KT 32/18 A2998 RMK A01 T03230178  RH  042%=      5-min Rain = 0
KMD1 140348Z 15006KT 32/18 A2998 RMK A01 T03230178  RH  042%=      5-min Rain = 0
KMD1 140349Z 14007KT 32/18 A2998 RMK A01 T03230178  RH  042%=      5-min Rain = 0
KMD1 140350Z 14006KT 32/18 A2998 RMK A01 T03220178  RH  042%=      5-min Rain = 0
KMD1 140351Z 14007KT 32/18 A2998 RMK A01 T03220178  RH  042%=      5-min Rain = 0
KMD1 140352Z 14006KT 32/18 A2998 RMK A01 T03210178  RH  043%=      5-min Rain = 0
KMD1 140353Z 15006KT 32/18 A2998 RMK A01 T03210178  RH  043%=      5-min Rain = 0
KMD1 140354Z 14006KT 32/18 A2998 RMK A01 T03200178  RH  043%=      5-min Rain = 0
KMD1 140355Z 14007KT 32/18 A2998 RMK A01 T03200178  RH  043%=      5-min Rain = 0
KMD1 140356Z 15007KT 32/18 A2998 RMK A01 T03200178  RH  043%=      5-min Rain = 0
KMD1 140357Z 15006KT 32/18 A2998 RMK A01 T03200178  RH  043%=      5-min Rain = 0
KMD1 140358Z 15006KT 32/18 A2998 RMK A01 T03200178  RH  043%=      5-min Rain = 0
KMD1 140359Z 14006KT 32/18 A2998 RMK A01 T03200179  RH  043%=      5-min Rain = 0
KMD1 140400Z 14006KT 32/18 A2998 RMK A01 T03190178  RH  043%=      5-min Rain = 0
KMD1 140401Z 14006KT 32/18 A2998 RMK A01 T03180178  RH  043%=      5-min Rain = 0
KMD1 140402Z 14006KT 32/18 A2998 RMK A01 T03180178  RH  043%=      5-min Rain = 0
KMD1 140403Z 15006KT 32/18 A2998 RMK A01 T03180178  RH  043%=      5-min Rain = 0
KMD1 140404Z 15006KT 32/18 A2998 RMK A01 T03180178  RH  043%=      5-min Rain = 0
KMD1 140405Z 15005KT 32/18 A2998 RMK A01 T03170178  RH  044%=      5-min Rain = 0
KMD1 140406Z 15005KT 32/18 A2998 RMK A01 T03160179  RH  044%=      5-min Rain = 0
KMD1 140407Z 15006KT 32/18 A2998 RMK A01 T03150179  RH  044%=      5-min Rain = 0
KMD1 140408Z 15005KT 32/18 A2998 RMK A01 T03150178  RH  044%=      5-min Rain = 0
KMD1 140409Z 15005KT 31/18 A2998 RMK A01 T03140178  RH  044%=      5-min Rain = 0
KMD1 140410Z 15005KT 31/18 A2998 RMK A01 T03140179  RH  044%=      5-min Rain = 0
KMD1 140411Z 15005KT 31/18 A2998 RMK A01 T03140178  RH  044%=      5-min Rain = 0
KMD1 140412Z 16004KT 31/18 A2998 RMK A01 T03130178  RH  045%=      5-min Rain = 0
KMD1 140413Z 16004KT 31/18 A2998 RMK A01 T03120179  RH  045%=      5-min Rain = 0
KMD1 140414Z 16004KT 31/18 A2998 RMK A01 T03120179  RH  045%=      5-min Rain = 0
KMD1 140415Z 16004KT 31/18 A2998 RMK A01 T03120179  RH  045%=      5-min Rain = 0
KMD1 140416Z 16004KT 31/18 A2998 RMK A01 T03120179  RH  045%=      5-min Rain = 0
KMD1 140417Z 17003KT 31/18 A2998 RMK A01 T03120179  RH  045%=      5-min Rain = 0
KMD1 140418Z 16003KT 31/18 A2998 RMK A01 T03110179  RH  045%=      5-min Rain = 0
KMD1 140419Z 15004KT 31/18 A2998 RMK A01 T03110179  RH  045%=      5-min Rain = 0
KMD1 140420Z 15005KT 31/18 A2999 RMK A01 T03100179  RH  046%=      5-min Rain = 0
KMD1 140421Z 16005KT 31/18 A2999 RMK A01 T03100179  RH  046%=      5-min Rain = 0
KMD1 140422Z 16004KT 31/18 A2999 RMK A01 T03100179  RH  046%=      5-min Rain = 0
KMD1 140423Z 16004KT 31/18 A2999 RMK A01 T03100179  RH  046%=      5-min Rain = 0
KMD1 140424Z 16003KT 31/18 A2999 RMK A01 T03100179  RH  046%=      5-min Rain = 0
KMD1 140425Z 16003KT 31/18 A2999 RMK A01 T03090179  RH  046%=      5-min Rain = 0
KMD1 140426Z 16003KT 31/18 A2999 RMK A01 T03090179  RH  046%=      5-min Rain = 0
KMD1 140427Z 17003KT 31/18 A2999 RMK A01 T03080179  RH  046%=      5-min Rain = 0
KMD1 140428Z 15003KT 31/18 A2999 RMK A01 T03080179  RH  046%=      5-min Rain = 0
KMD1 140429Z 16003KT 31/18 A2999 RMK A01 T03070179  RH  046%=      5-min Rain = 0
KMD1 140430Z 15002KT 31/18 A2999 RMK A01 T03070179  RH  046%=      5-min Rain = 0
KMD1 140431Z 15002KT 31/18 A2999 RMK A01 T03070179  RH  046%=      5-min Rain = 0
KMD1 140432Z 14002KT 31/18 A2999 RMK A01 T03060179  RH  047%=      5-min Rain = 0
KMD1 140433Z 15002KT 31/18 A2999 RMK A01 T03060179  RH  047%=      5-min Rain = 0
KMD1 140434Z 14002KT 31/18 A2999 RMK A01 T03050178  RH  047%=      5-min Rain = 0
KMD1 140435Z 15001KT 31/18 A2999 RMK A01 T03050178  RH  047%=      5-min Rain = 0
KMD1 140436Z 16001KT 30/18 A2999 RMK A01 T03040178  RH  047%=      5-min Rain = 0
KMD1 140437Z 15002KT 30/18 A2999 RMK A01 T03040178  RH  047%=      5-min Rain = 0
KMD1 140438Z 14002KT 30/18 A2999 RMK A01 T03030178  RH  047%=      5-min Rain = 0
KMD1 140439Z 14001KT 30/18 A2999 RMK A01 T03030178  RH  047%=      5-min Rain = 0
KMD1 140440Z 14001KT 30/18 A2999 RMK A01 T03030178  RH  047%=      5-min Rain = 0
KMD1 140441Z 10001KT 30/18 A2999 RMK A01 T03030178  RH  047%=      5-min Rain = 0
KMD1 140442Z 11002KT 30/18 A2999 RMK A01 T03020178  RH  047%=      5-min Rain = 0
KMD1 140443Z 10002KT 30/18 A2999 RMK A01 T03030179  RH  047%=      5-min Rain = 0
KMD1 140444Z 09002KT 30/18 A2999 RMK A01 T03020178  RH  047%=      5-min Rain = 0
KMD1 140445Z 09002KT 30/18 A2999 RMK A01 T03020179  RH  048%=      5-min Rain = 0
KMD1 140446Z 10003KT 30/18 A2999 RMK A01 T03020179  RH  048%=      5-min Rain = 0
KMD1 140447Z 10003KT 30/18 A2999 RMK A01 T03020179  RH  048%=      5-min Rain = 0
KMD1 140448Z 10003KT 30/18 A2999 RMK A01 T03010179  RH  048%=      5-min Rain = 0
KMD1 140449Z 11003KT 30/18 A2999 RMK A01 T02990179  RH  048%=      5-min Rain = 0
KMD1 140450Z 11002KT 30/18 A2999 RMK A01 T02990179  RH  049%=      5-min Rain = 0
KMD1 140451Z 12003KT 30/18 A2999 RMK A01 T02980179  RH  049%=      5-min Rain = 0
KMD1 140452Z 12002KT 30/18 A2999 RMK A01 T02970179  RH  049%=      5-min Rain = 0
KMD1 140453Z 12002KT 30/18 A2999 RMK A01 T02970178  RH  049%=      5-min Rain = 0
KMD1 140454Z 12002KT 30/18 A2999 RMK A01 T02960178  RH  049%=      5-min Rain = 0
KMD1 140455Z 13002KT 30/18 A2999 RMK A01 T02960178  RH  049%=      5-min Rain = 0
KMD1 140456Z 13002KT 30/18 A2999 RMK A01 T02960178  RH  049%=      5-min Rain = 0
KMD1 140457Z 12002KT 30/18 A2999 RMK A01 T02960178  RH  049%=      5-min Rain = 0
KMD1 140458Z 13002KT 30/18 A2999 RMK A01 T02950178  RH  049%=      5-min Rain = 0
KMD1 140459Z 13003KT 30/18 A2999 RMK A01 T02950178  RH  049%=      5-min Rain = 0

Page generated in 0.1582 seconds.